<?xml version="1.0" encoding="UTF-8" standalone="no" ?>
<gpx xmlns="http://www.topografix.com/GPX/1/1" xmlns:xsi="http://www.w3.org/2001/XMLSchema-instance" xsi:schemaLocation="http://www.topografix.com/GPX/1/1 http://www.topografix.com/GPX/1/1/gpx.xsd" version="1.1" creator="VisuGPX - https://www.visugpx.com">
  <metadata>
    <name>Circuit de Boissoles à St Germain-du-Bel-Air</name>
    <desc><![CDATA[Parcours facile offrant de belles perspectives sur la campagne autour de St Germain-du-Bel-Air, parsemée de puits, gariottes et autres bâtiments agricoles pittoresques.]]></desc>
  </metadata>
  <trk>
    <name><![CDATA[2 juil. 2017 14:12:30]]></name>
    <trkseg>
      <trkpt lat="44.64976" lon="1.43535">
        <ele>258.03</ele>
        <time>2017-07-02T12:12:31.685Z</time>
      </trkpt>
      <trkpt lat="44.64988" lon="1.43533">
        <ele>253.35</ele>
        <time>2017-07-02T12:12:50.674Z</time>
      </trkpt>
      <trkpt lat="44.64998" lon="1.43533">
        <ele>254.36</ele>
        <time>2017-07-02T12:12:56.998Z</time>
      </trkpt>
      <trkpt lat="44.65007" lon="1.4353">
        <ele>257.41</ele>
        <time>2017-07-02T12:13:07.000Z</time>
      </trkpt>
      <trkpt lat="44.65017" lon="1.4353">
        <ele>256.68</ele>
        <time>2017-07-02T12:13:16.998Z</time>
      </trkpt>
      <trkpt lat="44.65026" lon="1.43529">
        <ele>256.66</ele>
        <time>2017-07-02T12:13:24.998Z</time>
      </trkpt>
      <trkpt lat="44.65035" lon="1.4353">
        <ele>256.21</ele>
        <time>2017-07-02T12:13:32.998Z</time>
      </trkpt>
      <trkpt lat="44.65044" lon="1.43529">
        <ele>255.57</ele>
        <time>2017-07-02T12:13:41.998Z</time>
      </trkpt>
      <trkpt lat="44.65054" lon="1.4353">
        <ele>254.98</ele>
        <time>2017-07-02T12:13:49.998Z</time>
      </trkpt>
      <trkpt lat="44.65064" lon="1.43533">
        <ele>254.94</ele>
        <time>2017-07-02T12:13:56.998Z</time>
      </trkpt>
      <trkpt lat="44.65072" lon="1.43538">
        <ele>255.02</ele>
        <time>2017-07-02T12:14:04.000Z</time>
      </trkpt>
      <trkpt lat="44.6508" lon="1.43545">
        <ele>255.38</ele>
        <time>2017-07-02T12:14:12.998Z</time>
      </trkpt>
      <trkpt lat="44.65087" lon="1.43555">
        <ele>255.37</ele>
        <time>2017-07-02T12:14:21.998Z</time>
      </trkpt>
      <trkpt lat="44.6509" lon="1.43542">
        <ele>253.97</ele>
        <time>2017-07-02T12:15:05.998Z</time>
      </trkpt>
      <trkpt lat="44.65089" lon="1.43529">
        <ele>252.19</ele>
        <time>2017-07-02T12:15:17.998Z</time>
      </trkpt>
      <trkpt lat="44.65087" lon="1.43516">
        <ele>252.25</ele>
        <time>2017-07-02T12:15:28.000Z</time>
      </trkpt>
      <trkpt lat="44.65086" lon="1.43503">
        <ele>252.16</ele>
        <time>2017-07-02T12:15:36.998Z</time>
      </trkpt>
      <trkpt lat="44.65086" lon="1.43489">
        <ele>252.06</ele>
        <time>2017-07-02T12:15:44.998Z</time>
      </trkpt>
      <trkpt lat="44.65086" lon="1.43476">
        <ele>251.89</ele>
        <time>2017-07-02T12:15:53.998Z</time>
      </trkpt>
      <trkpt lat="44.65085" lon="1.43463">
        <ele>251.9</ele>
        <time>2017-07-02T12:16:03.000Z</time>
      </trkpt>
      <trkpt lat="44.65083" lon="1.43451">
        <ele>251.91</ele>
        <time>2017-07-02T12:16:12.000Z</time>
      </trkpt>
      <trkpt lat="44.65078" lon="1.4344">
        <ele>251.61</ele>
        <time>2017-07-02T12:16:20.000Z</time>
      </trkpt>
      <trkpt lat="44.65075" lon="1.43427">
        <ele>251.53</ele>
        <time>2017-07-02T12:16:29.998Z</time>
      </trkpt>
      <trkpt lat="44.6507" lon="1.43413">
        <ele>251.12</ele>
        <time>2017-07-02T12:16:40.998Z</time>
      </trkpt>
      <trkpt lat="44.65067" lon="1.43398">
        <ele>250.32</ele>
        <time>2017-07-02T12:16:51.000Z</time>
      </trkpt>
      <trkpt lat="44.65064" lon="1.43385">
        <ele>249.1</ele>
        <time>2017-07-02T12:17:00.998Z</time>
      </trkpt>
      <trkpt lat="44.6506" lon="1.43373">
        <ele>248.63</ele>
        <time>2017-07-02T12:17:09.998Z</time>
      </trkpt>
      <trkpt lat="44.65058" lon="1.43359">
        <ele>248.36</ele>
        <time>2017-07-02T12:17:19.000Z</time>
      </trkpt>
      <trkpt lat="44.65056" lon="1.43347">
        <ele>247.95</ele>
        <time>2017-07-02T12:17:27.000Z</time>
      </trkpt>
      <trkpt lat="44.65054" lon="1.43333">
        <ele>247.59</ele>
        <time>2017-07-02T12:17:36.000Z</time>
      </trkpt>
      <trkpt lat="44.65053" lon="1.43318">
        <ele>247.49</ele>
        <time>2017-07-02T12:17:44.000Z</time>
      </trkpt>
      <trkpt lat="44.65054" lon="1.43305">
        <ele>247.42</ele>
        <time>2017-07-02T12:17:51.000Z</time>
      </trkpt>
      <trkpt lat="44.65053" lon="1.43291">
        <ele>247.72</ele>
        <time>2017-07-02T12:18:00.998Z</time>
      </trkpt>
      <trkpt lat="44.65056" lon="1.43279">
        <ele>247.91</ele>
        <time>2017-07-02T12:18:08.998Z</time>
      </trkpt>
      <trkpt lat="44.65059" lon="1.43266">
        <ele>247.95</ele>
        <time>2017-07-02T12:18:16.000Z</time>
      </trkpt>
      <trkpt lat="44.65061" lon="1.43253">
        <ele>247.96</ele>
        <time>2017-07-02T12:18:24.000Z</time>
      </trkpt>
      <trkpt lat="44.65062" lon="1.43239">
        <ele>248.1</ele>
        <time>2017-07-02T12:18:32.000Z</time>
      </trkpt>
      <trkpt lat="44.65062" lon="1.43226">
        <ele>248.55</ele>
        <time>2017-07-02T12:18:40.000Z</time>
      </trkpt>
      <trkpt lat="44.65065" lon="1.43213">
        <ele>249.06</ele>
        <time>2017-07-02T12:18:47.000Z</time>
      </trkpt>
      <trkpt lat="44.65067" lon="1.432">
        <ele>249.6</ele>
        <time>2017-07-02T12:18:55.000Z</time>
      </trkpt>
      <trkpt lat="44.65068" lon="1.43186">
        <ele>249.17</ele>
        <time>2017-07-02T12:19:04.998Z</time>
      </trkpt>
      <trkpt lat="44.65068" lon="1.43172">
        <ele>249.28</ele>
        <time>2017-07-02T12:19:12.998Z</time>
      </trkpt>
      <trkpt lat="44.65072" lon="1.43158">
        <ele>249.02</ele>
        <time>2017-07-02T12:19:20.000Z</time>
      </trkpt>
      <trkpt lat="44.65073" lon="1.43145">
        <ele>248.65</ele>
        <time>2017-07-02T12:19:27.000Z</time>
      </trkpt>
      <trkpt lat="44.65074" lon="1.43132">
        <ele>248.14</ele>
        <time>2017-07-02T12:19:35.000Z</time>
      </trkpt>
      <trkpt lat="44.65074" lon="1.43119">
        <ele>248.59</ele>
        <time>2017-07-02T12:19:46.000Z</time>
      </trkpt>
      <trkpt lat="44.65077" lon="1.43106">
        <ele>249.56</ele>
        <time>2017-07-02T12:19:54.000Z</time>
      </trkpt>
      <trkpt lat="44.65078" lon="1.43093">
        <ele>249.39</ele>
        <time>2017-07-02T12:20:03.000Z</time>
      </trkpt>
      <trkpt lat="44.6508" lon="1.43081">
        <ele>248.94</ele>
        <time>2017-07-02T12:20:12.000Z</time>
      </trkpt>
      <trkpt lat="44.65081" lon="1.43067">
        <ele>248.28</ele>
        <time>2017-07-02T12:20:18.000Z</time>
      </trkpt>
      <trkpt lat="44.65081" lon="1.43053">
        <ele>247.1</ele>
        <time>2017-07-02T12:20:25.000Z</time>
      </trkpt>
      <trkpt lat="44.65082" lon="1.4304">
        <ele>245.81</ele>
        <time>2017-07-02T12:20:31.000Z</time>
      </trkpt>
      <trkpt lat="44.65083" lon="1.43027">
        <ele>244.94</ele>
        <time>2017-07-02T12:20:39.000Z</time>
      </trkpt>
      <trkpt lat="44.65085" lon="1.43013">
        <ele>245.02</ele>
        <time>2017-07-02T12:20:48.000Z</time>
      </trkpt>
      <trkpt lat="44.65086" lon="1.43001">
        <ele>245.94</ele>
        <time>2017-07-02T12:20:55.000Z</time>
      </trkpt>
      <trkpt lat="44.65087" lon="1.42987">
        <ele>246.42</ele>
        <time>2017-07-02T12:21:04.000Z</time>
      </trkpt>
      <trkpt lat="44.65088" lon="1.42974">
        <ele>246.24</ele>
        <time>2017-07-02T12:21:12.000Z</time>
      </trkpt>
      <trkpt lat="44.65087" lon="1.42961">
        <ele>246.82</ele>
        <time>2017-07-02T12:21:20.000Z</time>
      </trkpt>
      <trkpt lat="44.65087" lon="1.42947">
        <ele>247.04</ele>
        <time>2017-07-02T12:21:27.000Z</time>
      </trkpt>
      <trkpt lat="44.65087" lon="1.42934">
        <ele>246.61</ele>
        <time>2017-07-02T12:21:35.000Z</time>
      </trkpt>
      <trkpt lat="44.65088" lon="1.4292">
        <ele>246.13</ele>
        <time>2017-07-02T12:21:44.000Z</time>
      </trkpt>
      <trkpt lat="44.65088" lon="1.42906">
        <ele>245.49</ele>
        <time>2017-07-02T12:21:51.000Z</time>
      </trkpt>
      <trkpt lat="44.65086" lon="1.42892">
        <ele>245.14</ele>
        <time>2017-07-02T12:21:58.000Z</time>
      </trkpt>
      <trkpt lat="44.65085" lon="1.42879">
        <ele>244.82</ele>
        <time>2017-07-02T12:22:06.000Z</time>
      </trkpt>
      <trkpt lat="44.65085" lon="1.42865">
        <ele>244.9</ele>
        <time>2017-07-02T12:22:15.000Z</time>
      </trkpt>
      <trkpt lat="44.65087" lon="1.42851">
        <ele>244.94</ele>
        <time>2017-07-02T12:22:24.000Z</time>
      </trkpt>
      <trkpt lat="44.65087" lon="1.42836">
        <ele>245.55</ele>
        <time>2017-07-02T12:22:33.000Z</time>
      </trkpt>
      <trkpt lat="44.65089" lon="1.42822">
        <ele>245.49</ele>
        <time>2017-07-02T12:22:40.000Z</time>
      </trkpt>
      <trkpt lat="44.65089" lon="1.4281">
        <ele>245.71</ele>
        <time>2017-07-02T12:22:47.000Z</time>
      </trkpt>
      <trkpt lat="44.65089" lon="1.42796">
        <ele>245.71</ele>
        <time>2017-07-02T12:22:54.000Z</time>
      </trkpt>
      <trkpt lat="44.65092" lon="1.42782">
        <ele>245.2</ele>
        <time>2017-07-02T12:23:03.000Z</time>
      </trkpt>
      <trkpt lat="44.65092" lon="1.42768">
        <ele>244.44</ele>
        <time>2017-07-02T12:23:10.000Z</time>
      </trkpt>
      <trkpt lat="44.65091" lon="1.42754">
        <ele>243.85</ele>
        <time>2017-07-02T12:23:20.000Z</time>
      </trkpt>
      <trkpt lat="44.65093" lon="1.42741">
        <ele>243.71</ele>
        <time>2017-07-02T12:23:27.000Z</time>
      </trkpt>
      <trkpt lat="44.65094" lon="1.42727">
        <ele>244.33</ele>
        <time>2017-07-02T12:23:37.000Z</time>
      </trkpt>
      <trkpt lat="44.65093" lon="1.42714">
        <ele>244.73</ele>
        <time>2017-07-02T12:23:44.000Z</time>
      </trkpt>
      <trkpt lat="44.65095" lon="1.427">
        <ele>244.56</ele>
        <time>2017-07-02T12:23:55.000Z</time>
      </trkpt>
      <trkpt lat="44.65097" lon="1.42687">
        <ele>244.23</ele>
        <time>2017-07-02T12:24:02.000Z</time>
      </trkpt>
      <trkpt lat="44.65098" lon="1.42673">
        <ele>244.26</ele>
        <time>2017-07-02T12:24:09.000Z</time>
      </trkpt>
      <trkpt lat="44.65096" lon="1.4266">
        <ele>243.9</ele>
        <time>2017-07-02T12:24:17.000Z</time>
      </trkpt>
      <trkpt lat="44.65096" lon="1.42647">
        <ele>244.47</ele>
        <time>2017-07-02T12:24:24.000Z</time>
      </trkpt>
      <trkpt lat="44.65098" lon="1.42632">
        <ele>245.29</ele>
        <time>2017-07-02T12:24:33.000Z</time>
      </trkpt>
      <trkpt lat="44.65101" lon="1.42619">
        <ele>244.89</ele>
        <time>2017-07-02T12:24:41.000Z</time>
      </trkpt>
      <trkpt lat="44.65104" lon="1.42605">
        <ele>245.03</ele>
        <time>2017-07-02T12:24:50.000Z</time>
      </trkpt>
      <trkpt lat="44.65107" lon="1.42593">
        <ele>245.29</ele>
        <time>2017-07-02T12:24:58.000Z</time>
      </trkpt>
      <trkpt lat="44.6511" lon="1.42581">
        <ele>244.55</ele>
        <time>2017-07-02T12:25:06.000Z</time>
      </trkpt>
      <trkpt lat="44.65112" lon="1.42568">
        <ele>243.81</ele>
        <time>2017-07-02T12:25:13.000Z</time>
      </trkpt>
      <trkpt lat="44.6511" lon="1.42555">
        <ele>243.17</ele>
        <time>2017-07-02T12:25:20.000Z</time>
      </trkpt>
      <trkpt lat="44.65113" lon="1.42542">
        <ele>242.93</ele>
        <time>2017-07-02T12:25:30.000Z</time>
      </trkpt>
      <trkpt lat="44.65118" lon="1.42528">
        <ele>243</ele>
        <time>2017-07-02T12:25:37.000Z</time>
      </trkpt>
      <trkpt lat="44.65123" lon="1.42517">
        <ele>242.3</ele>
        <time>2017-07-02T12:25:46.000Z</time>
      </trkpt>
      <trkpt lat="44.65126" lon="1.42505">
        <ele>242.02</ele>
        <time>2017-07-02T12:25:54.000Z</time>
      </trkpt>
      <trkpt lat="44.65126" lon="1.42492">
        <ele>242.34</ele>
        <time>2017-07-02T12:26:00.000Z</time>
      </trkpt>
      <trkpt lat="44.65126" lon="1.42478">
        <ele>243.13</ele>
        <time>2017-07-02T12:26:07.000Z</time>
      </trkpt>
      <trkpt lat="44.65128" lon="1.42463">
        <ele>244.77</ele>
        <time>2017-07-02T12:26:17.000Z</time>
      </trkpt>
      <trkpt lat="44.6513" lon="1.42449">
        <ele>244.84</ele>
        <time>2017-07-02T12:26:25.000Z</time>
      </trkpt>
      <trkpt lat="44.65133" lon="1.42436">
        <ele>245.33</ele>
        <time>2017-07-02T12:26:33.000Z</time>
      </trkpt>
      <trkpt lat="44.65138" lon="1.42424">
        <ele>246.19</ele>
        <time>2017-07-02T12:26:42.000Z</time>
      </trkpt>
      <trkpt lat="44.65142" lon="1.42412">
        <ele>246.63</ele>
        <time>2017-07-02T12:26:50.000Z</time>
      </trkpt>
      <trkpt lat="44.65142" lon="1.42398">
        <ele>246.43</ele>
        <time>2017-07-02T12:26:57.000Z</time>
      </trkpt>
      <trkpt lat="44.65142" lon="1.42385">
        <ele>246.56</ele>
        <time>2017-07-02T12:27:04.000Z</time>
      </trkpt>
      <trkpt lat="44.65145" lon="1.42371">
        <ele>246.32</ele>
        <time>2017-07-02T12:27:13.000Z</time>
      </trkpt>
      <trkpt lat="44.65145" lon="1.42356">
        <ele>246.67</ele>
        <time>2017-07-02T12:27:22.000Z</time>
      </trkpt>
      <trkpt lat="44.65145" lon="1.42342">
        <ele>246.98</ele>
        <time>2017-07-02T12:27:30.000Z</time>
      </trkpt>
      <trkpt lat="44.65148" lon="1.42327">
        <ele>246.25</ele>
        <time>2017-07-02T12:27:38.000Z</time>
      </trkpt>
      <trkpt lat="44.6515" lon="1.42315">
        <ele>246.68</ele>
        <time>2017-07-02T12:27:49.000Z</time>
      </trkpt>
      <trkpt lat="44.65153" lon="1.42302">
        <ele>247.54</ele>
        <time>2017-07-02T12:27:56.000Z</time>
      </trkpt>
      <trkpt lat="44.65155" lon="1.42288">
        <ele>248.53</ele>
        <time>2017-07-02T12:28:03.000Z</time>
      </trkpt>
      <trkpt lat="44.65156" lon="1.42274">
        <ele>248.58</ele>
        <time>2017-07-02T12:28:11.000Z</time>
      </trkpt>
      <trkpt lat="44.65155" lon="1.4226">
        <ele>249.01</ele>
        <time>2017-07-02T12:28:20.000Z</time>
      </trkpt>
      <trkpt lat="44.65157" lon="1.42245">
        <ele>250.03</ele>
        <time>2017-07-02T12:28:31.000Z</time>
      </trkpt>
      <trkpt lat="44.65156" lon="1.42231">
        <ele>250.3</ele>
        <time>2017-07-02T12:28:38.000Z</time>
      </trkpt>
      <trkpt lat="44.65157" lon="1.42219">
        <ele>250.41</ele>
        <time>2017-07-02T12:28:46.000Z</time>
      </trkpt>
      <trkpt lat="44.6516" lon="1.42206">
        <ele>250.23</ele>
        <time>2017-07-02T12:28:54.000Z</time>
      </trkpt>
      <trkpt lat="44.65161" lon="1.42192">
        <ele>249.83</ele>
        <time>2017-07-02T12:29:03.000Z</time>
      </trkpt>
      <trkpt lat="44.65163" lon="1.42179">
        <ele>249.44</ele>
        <time>2017-07-02T12:29:10.000Z</time>
      </trkpt>
      <trkpt lat="44.65165" lon="1.42165">
        <ele>248.78</ele>
        <time>2017-07-02T12:29:18.000Z</time>
      </trkpt>
      <trkpt lat="44.65168" lon="1.42152">
        <ele>248.71</ele>
        <time>2017-07-02T12:29:27.000Z</time>
      </trkpt>
      <trkpt lat="44.6517" lon="1.42139">
        <ele>249.23</ele>
        <time>2017-07-02T12:29:37.000Z</time>
      </trkpt>
      <trkpt lat="44.65172" lon="1.42126">
        <ele>249.53</ele>
        <time>2017-07-02T12:29:44.000Z</time>
      </trkpt>
      <trkpt lat="44.65175" lon="1.42113">
        <ele>249.83</ele>
        <time>2017-07-02T12:29:53.000Z</time>
      </trkpt>
      <trkpt lat="44.65178" lon="1.421">
        <ele>249.38</ele>
        <time>2017-07-02T12:30:10.000Z</time>
      </trkpt>
      <trkpt lat="44.65178" lon="1.42087">
        <ele>249.31</ele>
        <time>2017-07-02T12:30:17.000Z</time>
      </trkpt>
      <trkpt lat="44.65181" lon="1.42074">
        <ele>249.67</ele>
        <time>2017-07-02T12:30:25.000Z</time>
      </trkpt>
      <trkpt lat="44.65182" lon="1.4206">
        <ele>250.13</ele>
        <time>2017-07-02T12:30:32.000Z</time>
      </trkpt>
      <trkpt lat="44.65184" lon="1.42047">
        <ele>250.02</ele>
        <time>2017-07-02T12:30:39.000Z</time>
      </trkpt>
      <trkpt lat="44.65184" lon="1.42034">
        <ele>250.14</ele>
        <time>2017-07-02T12:30:45.000Z</time>
      </trkpt>
      <trkpt lat="44.65186" lon="1.42021">
        <ele>250.15</ele>
        <time>2017-07-02T12:30:53.000Z</time>
      </trkpt>
      <trkpt lat="44.65187" lon="1.42007">
        <ele>249.89</ele>
        <time>2017-07-02T12:31:01.000Z</time>
      </trkpt>
      <trkpt lat="44.65189" lon="1.41995">
        <ele>250</ele>
        <time>2017-07-02T12:31:10.000Z</time>
      </trkpt>
      <trkpt lat="44.65192" lon="1.41981">
        <ele>250.11</ele>
        <time>2017-07-02T12:31:18.000Z</time>
      </trkpt>
      <trkpt lat="44.65196" lon="1.41969">
        <ele>250.36</ele>
        <time>2017-07-02T12:31:26.000Z</time>
      </trkpt>
      <trkpt lat="44.652" lon="1.41957">
        <ele>250.3</ele>
        <time>2017-07-02T12:31:33.000Z</time>
      </trkpt>
      <trkpt lat="44.65202" lon="1.41944">
        <ele>250.35</ele>
        <time>2017-07-02T12:31:41.000Z</time>
      </trkpt>
      <trkpt lat="44.65208" lon="1.41932">
        <ele>250.79</ele>
        <time>2017-07-02T12:31:49.000Z</time>
      </trkpt>
      <trkpt lat="44.65212" lon="1.41921">
        <ele>251.5</ele>
        <time>2017-07-02T12:31:55.000Z</time>
      </trkpt>
      <trkpt lat="44.65215" lon="1.41908">
        <ele>251.73</ele>
        <time>2017-07-02T12:32:03.000Z</time>
      </trkpt>
      <trkpt lat="44.65222" lon="1.41897">
        <ele>251.76</ele>
        <time>2017-07-02T12:32:14.000Z</time>
      </trkpt>
      <trkpt lat="44.65229" lon="1.41887">
        <ele>251.09</ele>
        <time>2017-07-02T12:32:23.000Z</time>
      </trkpt>
      <trkpt lat="44.65236" lon="1.41876">
        <ele>250.66</ele>
        <time>2017-07-02T12:32:31.000Z</time>
      </trkpt>
      <trkpt lat="44.6524" lon="1.41865">
        <ele>250.35</ele>
        <time>2017-07-02T12:32:39.000Z</time>
      </trkpt>
      <trkpt lat="44.65246" lon="1.41854">
        <ele>250.14</ele>
        <time>2017-07-02T12:32:47.000Z</time>
      </trkpt>
      <trkpt lat="44.6525" lon="1.41841">
        <ele>250.73</ele>
        <time>2017-07-02T12:32:56.000Z</time>
      </trkpt>
      <trkpt lat="44.65255" lon="1.41829">
        <ele>250.82</ele>
        <time>2017-07-02T12:33:04.000Z</time>
      </trkpt>
      <trkpt lat="44.65262" lon="1.41819">
        <ele>250.96</ele>
        <time>2017-07-02T12:33:15.000Z</time>
      </trkpt>
      <trkpt lat="44.65271" lon="1.41813">
        <ele>250.88</ele>
        <time>2017-07-02T12:33:24.000Z</time>
      </trkpt>
      <trkpt lat="44.65281" lon="1.41808">
        <ele>250.58</ele>
        <time>2017-07-02T12:33:34.000Z</time>
      </trkpt>
      <trkpt lat="44.65289" lon="1.41801">
        <ele>250.48</ele>
        <time>2017-07-02T12:33:41.000Z</time>
      </trkpt>
      <trkpt lat="44.65296" lon="1.41792">
        <ele>249.72</ele>
        <time>2017-07-02T12:33:49.000Z</time>
      </trkpt>
      <trkpt lat="44.65301" lon="1.4178">
        <ele>249.52</ele>
        <time>2017-07-02T12:33:57.000Z</time>
      </trkpt>
      <trkpt lat="44.65307" lon="1.41767">
        <ele>249.07</ele>
        <time>2017-07-02T12:34:06.000Z</time>
      </trkpt>
      <trkpt lat="44.65313" lon="1.41754">
        <ele>249.4</ele>
        <time>2017-07-02T12:34:13.000Z</time>
      </trkpt>
      <trkpt lat="44.65319" lon="1.41743">
        <ele>249.72</ele>
        <time>2017-07-02T12:34:22.000Z</time>
      </trkpt>
      <trkpt lat="44.65325" lon="1.41732">
        <ele>249.98</ele>
        <time>2017-07-02T12:34:29.000Z</time>
      </trkpt>
      <trkpt lat="44.65332" lon="1.41724">
        <ele>249.09</ele>
        <time>2017-07-02T12:34:38.000Z</time>
      </trkpt>
      <trkpt lat="44.6534" lon="1.41714">
        <ele>248.69</ele>
        <time>2017-07-02T12:34:47.000Z</time>
      </trkpt>
      <trkpt lat="44.65345" lon="1.41704">
        <ele>248.72</ele>
        <time>2017-07-02T12:34:53.000Z</time>
      </trkpt>
      <trkpt lat="44.65353" lon="1.41697">
        <ele>248.63</ele>
        <time>2017-07-02T12:35:01.000Z</time>
      </trkpt>
      <trkpt lat="44.65356" lon="1.41685">
        <ele>248.01</ele>
        <time>2017-07-02T12:35:11.000Z</time>
      </trkpt>
      <trkpt lat="44.65361" lon="1.41671">
        <ele>247.43</ele>
        <time>2017-07-02T12:35:18.000Z</time>
      </trkpt>
      <trkpt lat="44.65364" lon="1.41658">
        <ele>247.33</ele>
        <time>2017-07-02T12:35:26.000Z</time>
      </trkpt>
      <trkpt lat="44.65366" lon="1.41645">
        <ele>247.48</ele>
        <time>2017-07-02T12:35:32.000Z</time>
      </trkpt>
      <trkpt lat="44.6537" lon="1.41634">
        <ele>247.16</ele>
        <time>2017-07-02T12:35:41.000Z</time>
      </trkpt>
      <trkpt lat="44.65373" lon="1.4162">
        <ele>247.13</ele>
        <time>2017-07-02T12:35:48.000Z</time>
      </trkpt>
      <trkpt lat="44.65379" lon="1.41609">
        <ele>247.05</ele>
        <time>2017-07-02T12:35:55.000Z</time>
      </trkpt>
      <trkpt lat="44.65383" lon="1.41596">
        <ele>246.85</ele>
        <time>2017-07-02T12:36:04.000Z</time>
      </trkpt>
      <trkpt lat="44.65387" lon="1.41585">
        <ele>246.65</ele>
        <time>2017-07-02T12:36:12.000Z</time>
      </trkpt>
      <trkpt lat="44.6539" lon="1.41572">
        <ele>246.63</ele>
        <time>2017-07-02T12:36:20.000Z</time>
      </trkpt>
      <trkpt lat="44.65393" lon="1.4156">
        <ele>246.63</ele>
        <time>2017-07-02T12:36:27.000Z</time>
      </trkpt>
      <trkpt lat="44.65397" lon="1.41547">
        <ele>246.85</ele>
        <time>2017-07-02T12:36:34.000Z</time>
      </trkpt>
      <trkpt lat="44.65401" lon="1.41535">
        <ele>246.46</ele>
        <time>2017-07-02T12:36:42.000Z</time>
      </trkpt>
      <trkpt lat="44.65405" lon="1.41523">
        <ele>246.57</ele>
        <time>2017-07-02T12:36:50.000Z</time>
      </trkpt>
      <trkpt lat="44.65408" lon="1.4151">
        <ele>246.21</ele>
        <time>2017-07-02T12:36:59.000Z</time>
      </trkpt>
      <trkpt lat="44.65412" lon="1.41498">
        <ele>245.6</ele>
        <time>2017-07-02T12:37:06.000Z</time>
      </trkpt>
      <trkpt lat="44.65416" lon="1.41485">
        <ele>244.89</ele>
        <time>2017-07-02T12:37:16.000Z</time>
      </trkpt>
      <trkpt lat="44.65419" lon="1.41473">
        <ele>244.58</ele>
        <time>2017-07-02T12:37:23.000Z</time>
      </trkpt>
      <trkpt lat="44.65422" lon="1.4146">
        <ele>244.19</ele>
        <time>2017-07-02T12:37:30.000Z</time>
      </trkpt>
      <trkpt lat="44.65424" lon="1.41447">
        <ele>243.84</ele>
        <time>2017-07-02T12:37:37.000Z</time>
      </trkpt>
      <trkpt lat="44.65426" lon="1.41434">
        <ele>243.94</ele>
        <time>2017-07-02T12:37:44.000Z</time>
      </trkpt>
      <trkpt lat="44.65429" lon="1.41421">
        <ele>243.96</ele>
        <time>2017-07-02T12:37:52.000Z</time>
      </trkpt>
      <trkpt lat="44.65432" lon="1.41408">
        <ele>244.39</ele>
        <time>2017-07-02T12:38:01.000Z</time>
      </trkpt>
      <trkpt lat="44.65435" lon="1.41395">
        <ele>244.68</ele>
        <time>2017-07-02T12:38:09.000Z</time>
      </trkpt>
      <trkpt lat="44.65439" lon="1.41382">
        <ele>244.77</ele>
        <time>2017-07-02T12:38:16.000Z</time>
      </trkpt>
      <trkpt lat="44.6544" lon="1.41369">
        <ele>244.7</ele>
        <time>2017-07-02T12:38:23.000Z</time>
      </trkpt>
      <trkpt lat="44.65444" lon="1.41357">
        <ele>244.81</ele>
        <time>2017-07-02T12:38:31.000Z</time>
      </trkpt>
      <trkpt lat="44.65446" lon="1.41343">
        <ele>244.71</ele>
        <time>2017-07-02T12:38:41.000Z</time>
      </trkpt>
      <trkpt lat="44.6545" lon="1.41332">
        <ele>244.72</ele>
        <time>2017-07-02T12:38:48.000Z</time>
      </trkpt>
      <trkpt lat="44.65459" lon="1.41327">
        <ele>244.81</ele>
        <time>2017-07-02T12:38:56.000Z</time>
      </trkpt>
      <trkpt lat="44.65469" lon="1.41328">
        <ele>244.54</ele>
        <time>2017-07-02T12:39:04.000Z</time>
      </trkpt>
      <trkpt lat="44.65477" lon="1.41333">
        <ele>244.4</ele>
        <time>2017-07-02T12:39:12.000Z</time>
      </trkpt>
      <trkpt lat="44.65487" lon="1.41336">
        <ele>249.07</ele>
        <time>2017-07-02T12:41:10.000Z</time>
      </trkpt>
      <trkpt lat="44.65496" lon="1.41339">
        <ele>250.05</ele>
        <time>2017-07-02T12:41:20.000Z</time>
      </trkpt>
      <trkpt lat="44.65505" lon="1.41347">
        <ele>249.59</ele>
        <time>2017-07-02T12:41:39.000Z</time>
      </trkpt>
      <trkpt lat="44.65513" lon="1.41353">
        <ele>250.36</ele>
        <time>2017-07-02T12:41:46.000Z</time>
      </trkpt>
      <trkpt lat="44.65522" lon="1.41358">
        <ele>251.33</ele>
        <time>2017-07-02T12:41:55.000Z</time>
      </trkpt>
      <trkpt lat="44.65528" lon="1.41369">
        <ele>251.95</ele>
        <time>2017-07-02T12:42:02.000Z</time>
      </trkpt>
      <trkpt lat="44.65535" lon="1.41379">
        <ele>251.59</ele>
        <time>2017-07-02T12:42:11.000Z</time>
      </trkpt>
      <trkpt lat="44.65541" lon="1.41389">
        <ele>251.76</ele>
        <time>2017-07-02T12:42:18.000Z</time>
      </trkpt>
      <trkpt lat="44.65549" lon="1.41398">
        <ele>251.58</ele>
        <time>2017-07-02T12:42:26.000Z</time>
      </trkpt>
      <trkpt lat="44.65556" lon="1.41407">
        <ele>250.99</ele>
        <time>2017-07-02T12:42:34.000Z</time>
      </trkpt>
      <trkpt lat="44.65563" lon="1.41416">
        <ele>250.2</ele>
        <time>2017-07-02T12:42:42.000Z</time>
      </trkpt>
      <trkpt lat="44.6557" lon="1.41426">
        <ele>249.9</ele>
        <time>2017-07-02T12:42:50.000Z</time>
      </trkpt>
      <trkpt lat="44.65578" lon="1.41435">
        <ele>249.89</ele>
        <time>2017-07-02T12:42:59.000Z</time>
      </trkpt>
      <trkpt lat="44.65584" lon="1.41445">
        <ele>250.54</ele>
        <time>2017-07-02T12:43:08.000Z</time>
      </trkpt>
      <trkpt lat="44.65592" lon="1.41454">
        <ele>250.7</ele>
        <time>2017-07-02T12:43:17.000Z</time>
      </trkpt>
      <trkpt lat="44.65599" lon="1.41465">
        <ele>250.67</ele>
        <time>2017-07-02T12:43:24.000Z</time>
      </trkpt>
      <trkpt lat="44.65606" lon="1.41473">
        <ele>251.2</ele>
        <time>2017-07-02T12:43:31.000Z</time>
      </trkpt>
      <trkpt lat="44.65613" lon="1.41481">
        <ele>251.58</ele>
        <time>2017-07-02T12:43:37.000Z</time>
      </trkpt>
      <trkpt lat="44.65622" lon="1.41488">
        <ele>252.33</ele>
        <time>2017-07-02T12:43:46.000Z</time>
      </trkpt>
      <trkpt lat="44.65628" lon="1.41498">
        <ele>252.97</ele>
        <time>2017-07-02T12:43:54.000Z</time>
      </trkpt>
      <trkpt lat="44.65635" lon="1.41508">
        <ele>253.05</ele>
        <time>2017-07-02T12:44:01.000Z</time>
      </trkpt>
      <trkpt lat="44.65641" lon="1.41518">
        <ele>253.1</ele>
        <time>2017-07-02T12:44:10.000Z</time>
      </trkpt>
      <trkpt lat="44.65648" lon="1.41528">
        <ele>253.45</ele>
        <time>2017-07-02T12:44:20.000Z</time>
      </trkpt>
      <trkpt lat="44.65656" lon="1.41536">
        <ele>253.95</ele>
        <time>2017-07-02T12:44:28.000Z</time>
      </trkpt>
      <trkpt lat="44.65662" lon="1.41544">
        <ele>253.93</ele>
        <time>2017-07-02T12:44:35.000Z</time>
      </trkpt>
      <trkpt lat="44.65671" lon="1.41555">
        <ele>255.35</ele>
        <time>2017-07-02T12:44:44.000Z</time>
      </trkpt>
      <trkpt lat="44.65678" lon="1.41564">
        <ele>256.13</ele>
        <time>2017-07-02T12:44:50.000Z</time>
      </trkpt>
      <trkpt lat="44.65686" lon="1.41572">
        <ele>256.56</ele>
        <time>2017-07-02T12:44:59.000Z</time>
      </trkpt>
      <trkpt lat="44.65692" lon="1.41582">
        <ele>258.06</ele>
        <time>2017-07-02T12:45:09.000Z</time>
      </trkpt>
      <trkpt lat="44.65698" lon="1.41592">
        <ele>258.76</ele>
        <time>2017-07-02T12:45:18.000Z</time>
      </trkpt>
      <trkpt lat="44.65707" lon="1.41599">
        <ele>259.05</ele>
        <time>2017-07-02T12:45:26.000Z</time>
      </trkpt>
      <trkpt lat="44.65717" lon="1.41605">
        <ele>259.51</ele>
        <time>2017-07-02T12:45:33.000Z</time>
      </trkpt>
      <trkpt lat="44.65727" lon="1.4161">
        <ele>260.39</ele>
        <time>2017-07-02T12:45:43.000Z</time>
      </trkpt>
      <trkpt lat="44.65733" lon="1.4162">
        <ele>260.37</ele>
        <time>2017-07-02T12:45:47.000Z</time>
      </trkpt>
      <trkpt lat="44.6574" lon="1.41627">
        <ele>260.02</ele>
        <time>2017-07-02T12:46:06.000Z</time>
      </trkpt>
      <trkpt lat="44.65748" lon="1.41637">
        <ele>260.7</ele>
        <time>2017-07-02T12:46:16.000Z</time>
      </trkpt>
      <trkpt lat="44.65755" lon="1.41645">
        <ele>260.26</ele>
        <time>2017-07-02T12:46:24.000Z</time>
      </trkpt>
      <trkpt lat="44.65763" lon="1.41652">
        <ele>259.95</ele>
        <time>2017-07-02T12:46:32.000Z</time>
      </trkpt>
      <trkpt lat="44.65771" lon="1.41659">
        <ele>261.42</ele>
        <time>2017-07-02T12:46:48.000Z</time>
      </trkpt>
      <trkpt lat="44.65778" lon="1.41669">
        <ele>262.28</ele>
        <time>2017-07-02T12:46:57.000Z</time>
      </trkpt>
      <trkpt lat="44.65786" lon="1.41676">
        <ele>262.47</ele>
        <time>2017-07-02T12:47:03.000Z</time>
      </trkpt>
      <trkpt lat="44.65794" lon="1.41682">
        <ele>262.43</ele>
        <time>2017-07-02T12:47:09.000Z</time>
      </trkpt>
      <trkpt lat="44.65803" lon="1.41691">
        <ele>262.93</ele>
        <time>2017-07-02T12:47:19.000Z</time>
      </trkpt>
      <trkpt lat="44.65813" lon="1.41695">
        <ele>264.08</ele>
        <time>2017-07-02T12:47:28.000Z</time>
      </trkpt>
      <trkpt lat="44.65822" lon="1.41703">
        <ele>264.9</ele>
        <time>2017-07-02T12:47:35.000Z</time>
      </trkpt>
      <trkpt lat="44.65828" lon="1.41714">
        <ele>264.65</ele>
        <time>2017-07-02T12:47:39.000Z</time>
      </trkpt>
      <trkpt lat="44.65836" lon="1.41722">
        <ele>263.89</ele>
        <time>2017-07-02T12:47:47.000Z</time>
      </trkpt>
      <trkpt lat="44.65844" lon="1.41728">
        <ele>263.73</ele>
        <time>2017-07-02T12:47:57.998Z</time>
      </trkpt>
      <trkpt lat="44.65851" lon="1.41738">
        <ele>263.77</ele>
        <time>2017-07-02T12:48:04.000Z</time>
      </trkpt>
      <trkpt lat="44.65857" lon="1.41748">
        <ele>263.75</ele>
        <time>2017-07-02T12:48:12.000Z</time>
      </trkpt>
      <trkpt lat="44.65864" lon="1.41758">
        <ele>264.21</ele>
        <time>2017-07-02T12:48:20.000Z</time>
      </trkpt>
      <trkpt lat="44.65871" lon="1.41769">
        <ele>264.9</ele>
        <time>2017-07-02T12:48:29.000Z</time>
      </trkpt>
      <trkpt lat="44.65875" lon="1.4178">
        <ele>265.29</ele>
        <time>2017-07-02T12:48:37.000Z</time>
      </trkpt>
      <trkpt lat="44.6588" lon="1.41792">
        <ele>265.31</ele>
        <time>2017-07-02T12:48:45.000Z</time>
      </trkpt>
      <trkpt lat="44.65886" lon="1.418">
        <ele>264.85</ele>
        <time>2017-07-02T12:48:50.998Z</time>
      </trkpt>
      <trkpt lat="44.65895" lon="1.41806">
        <ele>264.9</ele>
        <time>2017-07-02T12:48:58.998Z</time>
      </trkpt>
      <trkpt lat="44.65904" lon="1.41811">
        <ele>265.36</ele>
        <time>2017-07-02T12:49:09.000Z</time>
      </trkpt>
      <trkpt lat="44.65913" lon="1.41817">
        <ele>265.78</ele>
        <time>2017-07-02T12:49:16.000Z</time>
      </trkpt>
      <trkpt lat="44.65922" lon="1.41823">
        <ele>266.01</ele>
        <time>2017-07-02T12:49:26.998Z</time>
      </trkpt>
      <trkpt lat="44.65928" lon="1.41835">
        <ele>265.63</ele>
        <time>2017-07-02T12:49:36.000Z</time>
      </trkpt>
      <trkpt lat="44.65937" lon="1.41843">
        <ele>265.46</ele>
        <time>2017-07-02T12:49:41.998Z</time>
      </trkpt>
      <trkpt lat="44.65944" lon="1.41851">
        <ele>265.6</ele>
        <time>2017-07-02T12:49:48.000Z</time>
      </trkpt>
      <trkpt lat="44.65951" lon="1.41859">
        <ele>265.65</ele>
        <time>2017-07-02T12:49:57.000Z</time>
      </trkpt>
      <trkpt lat="44.65958" lon="1.4187">
        <ele>265.29</ele>
        <time>2017-07-02T12:50:05.000Z</time>
      </trkpt>
      <trkpt lat="44.65963" lon="1.41881">
        <ele>265.2</ele>
        <time>2017-07-02T12:50:14.998Z</time>
      </trkpt>
      <trkpt lat="44.6597" lon="1.41891">
        <ele>264.4</ele>
        <time>2017-07-02T12:50:24.000Z</time>
      </trkpt>
      <trkpt lat="44.65974" lon="1.41903">
        <ele>264.42</ele>
        <time>2017-07-02T12:50:29.998Z</time>
      </trkpt>
      <trkpt lat="44.65979" lon="1.41913">
        <ele>264.45</ele>
        <time>2017-07-02T12:50:38.998Z</time>
      </trkpt>
      <trkpt lat="44.65984" lon="1.41924">
        <ele>263.82</ele>
        <time>2017-07-02T12:50:48.000Z</time>
      </trkpt>
      <trkpt lat="44.65989" lon="1.41939">
        <ele>263.59</ele>
        <time>2017-07-02T12:50:57.000Z</time>
      </trkpt>
      <trkpt lat="44.65994" lon="1.4195">
        <ele>264.03</ele>
        <time>2017-07-02T12:51:05.000Z</time>
      </trkpt>
      <trkpt lat="44.65999" lon="1.41961">
        <ele>265.52</ele>
        <time>2017-07-02T12:51:13.998Z</time>
      </trkpt>
      <trkpt lat="44.66005" lon="1.41972">
        <ele>266.51</ele>
        <time>2017-07-02T12:51:21.998Z</time>
      </trkpt>
      <trkpt lat="44.6601" lon="1.41985">
        <ele>267.08</ele>
        <time>2017-07-02T12:51:29.998Z</time>
      </trkpt>
      <trkpt lat="44.66015" lon="1.41998">
        <ele>267.75</ele>
        <time>2017-07-02T12:51:40.000Z</time>
      </trkpt>
      <trkpt lat="44.66021" lon="1.42009">
        <ele>267.72</ele>
        <time>2017-07-02T12:51:49.000Z</time>
      </trkpt>
      <trkpt lat="44.66025" lon="1.4202">
        <ele>267.79</ele>
        <time>2017-07-02T12:51:57.000Z</time>
      </trkpt>
      <trkpt lat="44.66029" lon="1.42033">
        <ele>267.63</ele>
        <time>2017-07-02T12:52:05.000Z</time>
      </trkpt>
      <trkpt lat="44.66036" lon="1.42042">
        <ele>267.35</ele>
        <time>2017-07-02T12:52:12.000Z</time>
      </trkpt>
      <trkpt lat="44.6604" lon="1.42054">
        <ele>268.61</ele>
        <time>2017-07-02T12:52:21.000Z</time>
      </trkpt>
      <trkpt lat="44.66044" lon="1.42066">
        <ele>268.84</ele>
        <time>2017-07-02T12:52:29.000Z</time>
      </trkpt>
      <trkpt lat="44.66047" lon="1.42079">
        <ele>268.86</ele>
        <time>2017-07-02T12:52:37.998Z</time>
      </trkpt>
      <trkpt lat="44.66051" lon="1.42092">
        <ele>269.33</ele>
        <time>2017-07-02T12:52:48.000Z</time>
      </trkpt>
      <trkpt lat="44.66054" lon="1.42105">
        <ele>269.22</ele>
        <time>2017-07-02T12:52:56.000Z</time>
      </trkpt>
      <trkpt lat="44.66057" lon="1.42118">
        <ele>269.78</ele>
        <time>2017-07-02T12:53:04.000Z</time>
      </trkpt>
      <trkpt lat="44.66061" lon="1.4213">
        <ele>270.42</ele>
        <time>2017-07-02T12:53:12.000Z</time>
      </trkpt>
      <trkpt lat="44.66064" lon="1.42143">
        <ele>271.06</ele>
        <time>2017-07-02T12:53:20.000Z</time>
      </trkpt>
      <trkpt lat="44.66068" lon="1.42155">
        <ele>271.6</ele>
        <time>2017-07-02T12:53:29.000Z</time>
      </trkpt>
      <trkpt lat="44.6607" lon="1.42168">
        <ele>272.08</ele>
        <time>2017-07-02T12:53:37.998Z</time>
      </trkpt>
      <trkpt lat="44.66076" lon="1.42181">
        <ele>271.94</ele>
        <time>2017-07-02T12:53:45.998Z</time>
      </trkpt>
      <trkpt lat="44.66079" lon="1.42195">
        <ele>273.12</ele>
        <time>2017-07-02T12:53:56.000Z</time>
      </trkpt>
      <trkpt lat="44.66081" lon="1.42209">
        <ele>273.92</ele>
        <time>2017-07-02T12:54:04.000Z</time>
      </trkpt>
      <trkpt lat="44.66085" lon="1.42221">
        <ele>274.71</ele>
        <time>2017-07-02T12:54:13.998Z</time>
      </trkpt>
      <trkpt lat="44.66089" lon="1.42234">
        <ele>275.27</ele>
        <time>2017-07-02T12:54:22.998Z</time>
      </trkpt>
      <trkpt lat="44.66093" lon="1.42245">
        <ele>275.52</ele>
        <time>2017-07-02T12:54:29.000Z</time>
      </trkpt>
      <trkpt lat="44.66095" lon="1.42258">
        <ele>275.76</ele>
        <time>2017-07-02T12:54:41.000Z</time>
      </trkpt>
      <trkpt lat="44.66101" lon="1.42269">
        <ele>275.9</ele>
        <time>2017-07-02T12:55:29.000Z</time>
      </trkpt>
      <trkpt lat="44.66106" lon="1.42281">
        <ele>276.35</ele>
        <time>2017-07-02T12:55:38.998Z</time>
      </trkpt>
      <trkpt lat="44.6611" lon="1.42293">
        <ele>276.43</ele>
        <time>2017-07-02T12:55:48.000Z</time>
      </trkpt>
      <trkpt lat="44.66116" lon="1.42303">
        <ele>276.92</ele>
        <time>2017-07-02T12:55:57.000Z</time>
      </trkpt>
      <trkpt lat="44.66121" lon="1.42314">
        <ele>277.45</ele>
        <time>2017-07-02T12:56:04.000Z</time>
      </trkpt>
      <trkpt lat="44.66129" lon="1.42321">
        <ele>277.3</ele>
        <time>2017-07-02T12:56:13.998Z</time>
      </trkpt>
      <trkpt lat="44.66139" lon="1.42318">
        <ele>277.25</ele>
        <time>2017-07-02T12:56:22.998Z</time>
      </trkpt>
      <trkpt lat="44.66146" lon="1.42311">
        <ele>277.13</ele>
        <time>2017-07-02T12:56:32.000Z</time>
      </trkpt>
      <trkpt lat="44.66154" lon="1.42304">
        <ele>276.81</ele>
        <time>2017-07-02T12:56:41.000Z</time>
      </trkpt>
      <trkpt lat="44.66163" lon="1.42297">
        <ele>277.1</ele>
        <time>2017-07-02T12:56:48.000Z</time>
      </trkpt>
      <trkpt lat="44.66172" lon="1.4229">
        <ele>277.2</ele>
        <time>2017-07-02T12:56:57.998Z</time>
      </trkpt>
      <trkpt lat="44.6618" lon="1.42281">
        <ele>276.83</ele>
        <time>2017-07-02T12:57:08.000Z</time>
      </trkpt>
      <trkpt lat="44.66188" lon="1.42276">
        <ele>276.57</ele>
        <time>2017-07-02T12:57:14.998Z</time>
      </trkpt>
      <trkpt lat="44.66198" lon="1.42275">
        <ele>276.96</ele>
        <time>2017-07-02T12:57:24.000Z</time>
      </trkpt>
      <trkpt lat="44.66206" lon="1.42284">
        <ele>277.84</ele>
        <time>2017-07-02T12:57:34.998Z</time>
      </trkpt>
      <trkpt lat="44.6621" lon="1.42296">
        <ele>278.29</ele>
        <time>2017-07-02T12:57:41.000Z</time>
      </trkpt>
      <trkpt lat="44.66214" lon="1.42308">
        <ele>278.71</ele>
        <time>2017-07-02T12:57:50.998Z</time>
      </trkpt>
      <trkpt lat="44.66219" lon="1.42319">
        <ele>279.65</ele>
        <time>2017-07-02T12:58:00.000Z</time>
      </trkpt>
      <trkpt lat="44.66224" lon="1.42332">
        <ele>280.11</ele>
        <time>2017-07-02T12:58:06.998Z</time>
      </trkpt>
      <trkpt lat="44.66229" lon="1.42343">
        <ele>280.2</ele>
        <time>2017-07-02T12:58:14.998Z</time>
      </trkpt>
      <trkpt lat="44.66234" lon="1.42353">
        <ele>280.27</ele>
        <time>2017-07-02T12:58:21.998Z</time>
      </trkpt>
      <trkpt lat="44.66237" lon="1.42366">
        <ele>279.99</ele>
        <time>2017-07-02T12:58:29.000Z</time>
      </trkpt>
      <trkpt lat="44.66243" lon="1.42375">
        <ele>279.87</ele>
        <time>2017-07-02T12:58:34.998Z</time>
      </trkpt>
      <trkpt lat="44.66248" lon="1.42386">
        <ele>280.17</ele>
        <time>2017-07-02T12:58:42.998Z</time>
      </trkpt>
      <trkpt lat="44.66251" lon="1.42399">
        <ele>279.99</ele>
        <time>2017-07-02T12:58:50.998Z</time>
      </trkpt>
      <trkpt lat="44.66253" lon="1.42411">
        <ele>279.75</ele>
        <time>2017-07-02T12:58:58.998Z</time>
      </trkpt>
      <trkpt lat="44.66258" lon="1.42422">
        <ele>279.66</ele>
        <time>2017-07-02T12:59:05.998Z</time>
      </trkpt>
      <trkpt lat="44.6626" lon="1.42435">
        <ele>279.87</ele>
        <time>2017-07-02T12:59:16.000Z</time>
      </trkpt>
      <trkpt lat="44.66264" lon="1.42449">
        <ele>280.71</ele>
        <time>2017-07-02T12:59:25.000Z</time>
      </trkpt>
      <trkpt lat="44.66271" lon="1.42458">
        <ele>281.01</ele>
        <time>2017-07-02T12:59:30.998Z</time>
      </trkpt>
      <trkpt lat="44.66274" lon="1.42472">
        <ele>281.47</ele>
        <time>2017-07-02T12:59:42.998Z</time>
      </trkpt>
      <trkpt lat="44.6628" lon="1.42483">
        <ele>281.62</ele>
        <time>2017-07-02T12:59:52.000Z</time>
      </trkpt>
      <trkpt lat="44.66284" lon="1.42495">
        <ele>281.74</ele>
        <time>2017-07-02T12:59:58.998Z</time>
      </trkpt>
      <trkpt lat="44.6629" lon="1.42506">
        <ele>281.79</ele>
        <time>2017-07-02T13:00:05.998Z</time>
      </trkpt>
      <trkpt lat="44.66292" lon="1.42519">
        <ele>282.26</ele>
        <time>2017-07-02T13:00:14.998Z</time>
      </trkpt>
      <trkpt lat="44.66295" lon="1.42533">
        <ele>282.71</ele>
        <time>2017-07-02T13:00:22.998Z</time>
      </trkpt>
      <trkpt lat="44.663" lon="1.42545">
        <ele>282.83</ele>
        <time>2017-07-02T13:00:29.000Z</time>
      </trkpt>
      <trkpt lat="44.66304" lon="1.42558">
        <ele>282.91</ele>
        <time>2017-07-02T13:00:38.998Z</time>
      </trkpt>
      <trkpt lat="44.66309" lon="1.42569">
        <ele>283.21</ele>
        <time>2017-07-02T13:00:48.000Z</time>
      </trkpt>
      <trkpt lat="44.66315" lon="1.4258">
        <ele>283.16</ele>
        <time>2017-07-02T13:00:57.998Z</time>
      </trkpt>
      <trkpt lat="44.66321" lon="1.4259">
        <ele>283.43</ele>
        <time>2017-07-02T13:01:05.998Z</time>
      </trkpt>
      <trkpt lat="44.66328" lon="1.42597">
        <ele>284.43</ele>
        <time>2017-07-02T13:01:14.998Z</time>
      </trkpt>
      <trkpt lat="44.66336" lon="1.42605">
        <ele>284.9</ele>
        <time>2017-07-02T13:01:22.998Z</time>
      </trkpt>
      <trkpt lat="44.66346" lon="1.42609">
        <ele>285.59</ele>
        <time>2017-07-02T13:01:33.000Z</time>
      </trkpt>
      <trkpt lat="44.66356" lon="1.42612">
        <ele>285.68</ele>
        <time>2017-07-02T13:01:40.000Z</time>
      </trkpt>
      <trkpt lat="44.66366" lon="1.42615">
        <ele>285.61</ele>
        <time>2017-07-02T13:01:48.000Z</time>
      </trkpt>
      <trkpt lat="44.66375" lon="1.42619">
        <ele>285.78</ele>
        <time>2017-07-02T13:01:54.998Z</time>
      </trkpt>
      <trkpt lat="44.66385" lon="1.42623">
        <ele>285.75</ele>
        <time>2017-07-02T13:02:06.998Z</time>
      </trkpt>
      <trkpt lat="44.66394" lon="1.42629">
        <ele>285.5</ele>
        <time>2017-07-02T13:02:13.000Z</time>
      </trkpt>
      <trkpt lat="44.66402" lon="1.42636">
        <ele>285.77</ele>
        <time>2017-07-02T13:02:21.000Z</time>
      </trkpt>
      <trkpt lat="44.66411" lon="1.42641">
        <ele>286.16</ele>
        <time>2017-07-02T13:02:30.998Z</time>
      </trkpt>
      <trkpt lat="44.6642" lon="1.42644">
        <ele>286.66</ele>
        <time>2017-07-02T13:02:40.000Z</time>
      </trkpt>
      <trkpt lat="44.66429" lon="1.42646">
        <ele>287.63</ele>
        <time>2017-07-02T13:02:48.000Z</time>
      </trkpt>
      <trkpt lat="44.66439" lon="1.42651">
        <ele>287.94</ele>
        <time>2017-07-02T13:02:57.998Z</time>
      </trkpt>
      <trkpt lat="44.66448" lon="1.42657">
        <ele>287.58</ele>
        <time>2017-07-02T13:03:04.000Z</time>
      </trkpt>
      <trkpt lat="44.66457" lon="1.42661">
        <ele>286.86</ele>
        <time>2017-07-02T13:03:13.000Z</time>
      </trkpt>
      <trkpt lat="44.66467" lon="1.42665">
        <ele>286.94</ele>
        <time>2017-07-02T13:03:21.998Z</time>
      </trkpt>
      <trkpt lat="44.66476" lon="1.42667">
        <ele>287.93</ele>
        <time>2017-07-02T13:03:29.998Z</time>
      </trkpt>
      <trkpt lat="44.66485" lon="1.4267">
        <ele>288.22</ele>
        <time>2017-07-02T13:03:38.998Z</time>
      </trkpt>
      <trkpt lat="44.66492" lon="1.42679">
        <ele>288.27</ele>
        <time>2017-07-02T13:03:49.000Z</time>
      </trkpt>
      <trkpt lat="44.665" lon="1.42685">
        <ele>289.08</ele>
        <time>2017-07-02T13:03:56.000Z</time>
      </trkpt>
      <trkpt lat="44.66509" lon="1.42691">
        <ele>289.63</ele>
        <time>2017-07-02T13:04:02.998Z</time>
      </trkpt>
      <trkpt lat="44.66518" lon="1.42693">
        <ele>289.94</ele>
        <time>2017-07-02T13:04:09.998Z</time>
      </trkpt>
      <trkpt lat="44.66527" lon="1.42697">
        <ele>290.58</ele>
        <time>2017-07-02T13:04:17.998Z</time>
      </trkpt>
      <trkpt lat="44.66536" lon="1.42701">
        <ele>290.73</ele>
        <time>2017-07-02T13:04:25.998Z</time>
      </trkpt>
      <trkpt lat="44.66546" lon="1.42704">
        <ele>290.19</ele>
        <time>2017-07-02T13:04:37.000Z</time>
      </trkpt>
      <trkpt lat="44.66556" lon="1.42705">
        <ele>290.13</ele>
        <time>2017-07-02T13:04:45.000Z</time>
      </trkpt>
      <trkpt lat="44.66565" lon="1.42707">
        <ele>290.53</ele>
        <time>2017-07-02T13:04:52.000Z</time>
      </trkpt>
      <trkpt lat="44.66574" lon="1.4271">
        <ele>291.47</ele>
        <time>2017-07-02T13:05:01.998Z</time>
      </trkpt>
      <trkpt lat="44.66584" lon="1.42711">
        <ele>292.47</ele>
        <time>2017-07-02T13:05:10.998Z</time>
      </trkpt>
      <trkpt lat="44.66594" lon="1.42711">
        <ele>293.16</ele>
        <time>2017-07-02T13:05:20.000Z</time>
      </trkpt>
      <trkpt lat="44.66604" lon="1.42714">
        <ele>293.65</ele>
        <time>2017-07-02T13:05:25.998Z</time>
      </trkpt>
      <trkpt lat="44.66614" lon="1.42715">
        <ele>293.87</ele>
        <time>2017-07-02T13:05:37.000Z</time>
      </trkpt>
      <trkpt lat="44.66624" lon="1.42718">
        <ele>294.1</ele>
        <time>2017-07-02T13:05:45.998Z</time>
      </trkpt>
      <trkpt lat="44.66633" lon="1.4272">
        <ele>294.01</ele>
        <time>2017-07-02T13:05:54.998Z</time>
      </trkpt>
      <trkpt lat="44.66643" lon="1.42723">
        <ele>294.25</ele>
        <time>2017-07-02T13:06:04.000Z</time>
      </trkpt>
      <trkpt lat="44.66652" lon="1.42723">
        <ele>295.59</ele>
        <time>2017-07-02T13:06:12.000Z</time>
      </trkpt>
      <trkpt lat="44.66661" lon="1.42728">
        <ele>296.17</ele>
        <time>2017-07-02T13:06:18.998Z</time>
      </trkpt>
      <trkpt lat="44.66671" lon="1.42728">
        <ele>296.44</ele>
        <time>2017-07-02T13:06:28.000Z</time>
      </trkpt>
      <trkpt lat="44.66681" lon="1.42725">
        <ele>296.5</ele>
        <time>2017-07-02T13:06:37.998Z</time>
      </trkpt>
      <trkpt lat="44.6669" lon="1.42721">
        <ele>296.23</ele>
        <time>2017-07-02T13:06:45.998Z</time>
      </trkpt>
      <trkpt lat="44.667" lon="1.42721">
        <ele>309.66</ele>
        <time>2017-07-02T13:15:01.000Z</time>
      </trkpt>
      <trkpt lat="44.66709" lon="1.42719">
        <ele>309.41</ele>
        <time>2017-07-02T13:15:14.000Z</time>
      </trkpt>
      <trkpt lat="44.66719" lon="1.42714">
        <ele>308.8</ele>
        <time>2017-07-02T13:15:27.000Z</time>
      </trkpt>
      <trkpt lat="44.66728" lon="1.42706">
        <ele>308.76</ele>
        <time>2017-07-02T13:15:33.000Z</time>
      </trkpt>
      <trkpt lat="44.66735" lon="1.42697">
        <ele>309.1</ele>
        <time>2017-07-02T13:15:38.000Z</time>
      </trkpt>
      <trkpt lat="44.66744" lon="1.42693">
        <ele>310.09</ele>
        <time>2017-07-02T13:15:51.000Z</time>
      </trkpt>
      <trkpt lat="44.66752" lon="1.42684">
        <ele>310.09</ele>
        <time>2017-07-02T13:16:01.000Z</time>
      </trkpt>
      <trkpt lat="44.66761" lon="1.42682">
        <ele>309.55</ele>
        <time>2017-07-02T13:16:10.000Z</time>
      </trkpt>
      <trkpt lat="44.66771" lon="1.42681">
        <ele>309.63</ele>
        <time>2017-07-02T13:16:18.000Z</time>
      </trkpt>
      <trkpt lat="44.6678" lon="1.42678">
        <ele>309.92</ele>
        <time>2017-07-02T13:16:34.000Z</time>
      </trkpt>
      <trkpt lat="44.66789" lon="1.42677">
        <ele>310.23</ele>
        <time>2017-07-02T13:16:42.000Z</time>
      </trkpt>
      <trkpt lat="44.66798" lon="1.42676">
        <ele>310.63</ele>
        <time>2017-07-02T13:16:50.000Z</time>
      </trkpt>
      <trkpt lat="44.66807" lon="1.42676">
        <ele>310.88</ele>
        <time>2017-07-02T13:16:59.000Z</time>
      </trkpt>
      <trkpt lat="44.66817" lon="1.42677">
        <ele>309.88</ele>
        <time>2017-07-02T13:17:13.000Z</time>
      </trkpt>
      <trkpt lat="44.66827" lon="1.42675">
        <ele>308.2</ele>
        <time>2017-07-02T13:17:22.000Z</time>
      </trkpt>
      <trkpt lat="44.66835" lon="1.42674">
        <ele>307.26</ele>
        <time>2017-07-02T13:17:32.000Z</time>
      </trkpt>
      <trkpt lat="44.66844" lon="1.42669">
        <ele>307.52</ele>
        <time>2017-07-02T13:17:39.000Z</time>
      </trkpt>
      <trkpt lat="44.66853" lon="1.42665">
        <ele>308.4</ele>
        <time>2017-07-02T13:17:49.000Z</time>
      </trkpt>
      <trkpt lat="44.66862" lon="1.42664">
        <ele>309.42</ele>
        <time>2017-07-02T13:17:57.000Z</time>
      </trkpt>
      <trkpt lat="44.66871" lon="1.4266">
        <ele>310.56</ele>
        <time>2017-07-02T13:18:09.000Z</time>
      </trkpt>
      <trkpt lat="44.66881" lon="1.42656">
        <ele>310.86</ele>
        <time>2017-07-02T13:18:18.000Z</time>
      </trkpt>
      <trkpt lat="44.6689" lon="1.4265">
        <ele>309.94</ele>
        <time>2017-07-02T13:18:27.000Z</time>
      </trkpt>
      <trkpt lat="44.66899" lon="1.42648">
        <ele>309.02</ele>
        <time>2017-07-02T13:18:37.000Z</time>
      </trkpt>
      <trkpt lat="44.66909" lon="1.42655">
        <ele>309.29</ele>
        <time>2017-07-02T13:18:49.000Z</time>
      </trkpt>
      <trkpt lat="44.66918" lon="1.42657">
        <ele>310.02</ele>
        <time>2017-07-02T13:18:55.000Z</time>
      </trkpt>
      <trkpt lat="44.66925" lon="1.42666">
        <ele>311.2</ele>
        <time>2017-07-02T13:19:02.000Z</time>
      </trkpt>
      <trkpt lat="44.66932" lon="1.42674">
        <ele>312.12</ele>
        <time>2017-07-02T13:19:09.000Z</time>
      </trkpt>
      <trkpt lat="44.66938" lon="1.42684">
        <ele>311.87</ele>
        <time>2017-07-02T13:19:19.000Z</time>
      </trkpt>
      <trkpt lat="44.6694" lon="1.42697">
        <ele>311.7</ele>
        <time>2017-07-02T13:19:28.000Z</time>
      </trkpt>
      <trkpt lat="44.66945" lon="1.42709">
        <ele>311.16</ele>
        <time>2017-07-02T13:19:38.000Z</time>
      </trkpt>
      <trkpt lat="44.6695" lon="1.42719">
        <ele>309.34</ele>
        <time>2017-07-02T13:19:47.000Z</time>
      </trkpt>
      <trkpt lat="44.66956" lon="1.42729">
        <ele>307.05</ele>
        <time>2017-07-02T13:19:57.000Z</time>
      </trkpt>
      <trkpt lat="44.66962" lon="1.42738">
        <ele>306</ele>
        <time>2017-07-02T13:20:07.000Z</time>
      </trkpt>
      <trkpt lat="44.66967" lon="1.4275">
        <ele>306.29</ele>
        <time>2017-07-02T13:20:15.000Z</time>
      </trkpt>
      <trkpt lat="44.66974" lon="1.42761">
        <ele>307.44</ele>
        <time>2017-07-02T13:20:23.000Z</time>
      </trkpt>
      <trkpt lat="44.66981" lon="1.4277">
        <ele>307.53</ele>
        <time>2017-07-02T13:20:34.000Z</time>
      </trkpt>
      <trkpt lat="44.66984" lon="1.42783">
        <ele>306.69</ele>
        <time>2017-07-02T13:20:44.000Z</time>
      </trkpt>
      <trkpt lat="44.66988" lon="1.42799">
        <ele>305.49</ele>
        <time>2017-07-02T13:20:55.000Z</time>
      </trkpt>
      <trkpt lat="44.66996" lon="1.42807">
        <ele>306.49</ele>
        <time>2017-07-02T13:21:04.000Z</time>
      </trkpt>
      <trkpt lat="44.67004" lon="1.42814">
        <ele>307.41</ele>
        <time>2017-07-02T13:21:10.000Z</time>
      </trkpt>
      <trkpt lat="44.67013" lon="1.42822">
        <ele>308.03</ele>
        <time>2017-07-02T13:21:19.000Z</time>
      </trkpt>
      <trkpt lat="44.67022" lon="1.42827">
        <ele>308.43</ele>
        <time>2017-07-02T13:21:29.000Z</time>
      </trkpt>
      <trkpt lat="44.67031" lon="1.42831">
        <ele>309.25</ele>
        <time>2017-07-02T13:21:39.000Z</time>
      </trkpt>
      <trkpt lat="44.6704" lon="1.42836">
        <ele>309.34</ele>
        <time>2017-07-02T13:21:48.000Z</time>
      </trkpt>
      <trkpt lat="44.67049" lon="1.4284">
        <ele>309.63</ele>
        <time>2017-07-02T13:21:57.000Z</time>
      </trkpt>
      <trkpt lat="44.67057" lon="1.42845">
        <ele>309.6</ele>
        <time>2017-07-02T13:22:04.000Z</time>
      </trkpt>
      <trkpt lat="44.67066" lon="1.4285">
        <ele>309.26</ele>
        <time>2017-07-02T13:22:15.000Z</time>
      </trkpt>
      <trkpt lat="44.6707" lon="1.42861">
        <ele>309.71</ele>
        <time>2017-07-02T13:22:46.000Z</time>
      </trkpt>
      <trkpt lat="44.67065" lon="1.42873">
        <ele>310.09</ele>
        <time>2017-07-02T13:23:10.000Z</time>
      </trkpt>
      <trkpt lat="44.67061" lon="1.42886">
        <ele>311.25</ele>
        <time>2017-07-02T13:23:19.000Z</time>
      </trkpt>
      <trkpt lat="44.67055" lon="1.42898">
        <ele>312.63</ele>
        <time>2017-07-02T13:23:26.000Z</time>
      </trkpt>
      <trkpt lat="44.67049" lon="1.4291">
        <ele>313.54</ele>
        <time>2017-07-02T13:23:34.000Z</time>
      </trkpt>
      <trkpt lat="44.67044" lon="1.4292">
        <ele>314.16</ele>
        <time>2017-07-02T13:23:45.000Z</time>
      </trkpt>
      <trkpt lat="44.6704" lon="1.42932">
        <ele>315.55</ele>
        <time>2017-07-02T13:23:56.000Z</time>
      </trkpt>
      <trkpt lat="44.67037" lon="1.42945">
        <ele>315.87</ele>
        <time>2017-07-02T13:24:06.000Z</time>
      </trkpt>
      <trkpt lat="44.67039" lon="1.42958">
        <ele>317.06</ele>
        <time>2017-07-02T13:24:16.000Z</time>
      </trkpt>
      <trkpt lat="44.67045" lon="1.42967">
        <ele>316.68</ele>
        <time>2017-07-02T13:24:21.000Z</time>
      </trkpt>
      <trkpt lat="44.67046" lon="1.4298">
        <ele>317.39</ele>
        <time>2017-07-02T13:24:36.000Z</time>
      </trkpt>
      <trkpt lat="44.67041" lon="1.42992">
        <ele>318.09</ele>
        <time>2017-07-02T13:24:41.000Z</time>
      </trkpt>
      <trkpt lat="44.67033" lon="1.43001">
        <ele>319.15</ele>
        <time>2017-07-02T13:24:52.000Z</time>
      </trkpt>
      <trkpt lat="44.67027" lon="1.43016">
        <ele>319.74</ele>
        <time>2017-07-02T13:25:05.000Z</time>
      </trkpt>
      <trkpt lat="44.67024" lon="1.43028">
        <ele>320.16</ele>
        <time>2017-07-02T13:25:15.000Z</time>
      </trkpt>
      <trkpt lat="44.67027" lon="1.4304">
        <ele>320.57</ele>
        <time>2017-07-02T13:25:23.000Z</time>
      </trkpt>
      <trkpt lat="44.67026" lon="1.43053">
        <ele>322.04</ele>
        <time>2017-07-02T13:25:34.000Z</time>
      </trkpt>
      <trkpt lat="44.67025" lon="1.43066">
        <ele>323.47</ele>
        <time>2017-07-02T13:25:43.000Z</time>
      </trkpt>
      <trkpt lat="44.67025" lon="1.4308">
        <ele>324.33</ele>
        <time>2017-07-02T13:25:52.000Z</time>
      </trkpt>
      <trkpt lat="44.67027" lon="1.43093">
        <ele>325.53</ele>
        <time>2017-07-02T13:26:03.000Z</time>
      </trkpt>
      <trkpt lat="44.6703" lon="1.43105">
        <ele>326.12</ele>
        <time>2017-07-02T13:26:11.000Z</time>
      </trkpt>
      <trkpt lat="44.6703" lon="1.43118">
        <ele>327.12</ele>
        <time>2017-07-02T13:26:23.000Z</time>
      </trkpt>
      <trkpt lat="44.67029" lon="1.43132">
        <ele>328.18</ele>
        <time>2017-07-02T13:26:33.000Z</time>
      </trkpt>
      <trkpt lat="44.67027" lon="1.43146">
        <ele>330.06</ele>
        <time>2017-07-02T13:26:47.000Z</time>
      </trkpt>
      <trkpt lat="44.67027" lon="1.43161">
        <ele>331.88</ele>
        <time>2017-07-02T13:26:58.000Z</time>
      </trkpt>
      <trkpt lat="44.67027" lon="1.43174">
        <ele>334.2</ele>
        <time>2017-07-02T13:27:09.000Z</time>
      </trkpt>
      <trkpt lat="44.67022" lon="1.43187">
        <ele>335.34</ele>
        <time>2017-07-02T13:27:22.000Z</time>
      </trkpt>
      <trkpt lat="44.67019" lon="1.432">
        <ele>336.33</ele>
        <time>2017-07-02T13:27:29.000Z</time>
      </trkpt>
      <trkpt lat="44.67015" lon="1.43212">
        <ele>335.85</ele>
        <time>2017-07-02T13:27:40.000Z</time>
      </trkpt>
      <trkpt lat="44.67007" lon="1.43223">
        <ele>334.06</ele>
        <time>2017-07-02T13:27:51.000Z</time>
      </trkpt>
      <trkpt lat="44.67002" lon="1.43235">
        <ele>332.45</ele>
        <time>2017-07-02T13:28:01.000Z</time>
      </trkpt>
      <trkpt lat="44.67001" lon="1.43248">
        <ele>332.75</ele>
        <time>2017-07-02T13:28:12.000Z</time>
      </trkpt>
      <trkpt lat="44.66996" lon="1.43259">
        <ele>333.97</ele>
        <time>2017-07-02T13:28:23.000Z</time>
      </trkpt>
      <trkpt lat="44.6699" lon="1.4327">
        <ele>335.44</ele>
        <time>2017-07-02T13:28:36.000Z</time>
      </trkpt>
      <trkpt lat="44.66983" lon="1.43276">
        <ele>335.77</ele>
        <time>2017-07-02T13:28:46.000Z</time>
      </trkpt>
      <trkpt lat="44.66974" lon="1.43282">
        <ele>336.09</ele>
        <time>2017-07-02T13:28:58.000Z</time>
      </trkpt>
      <trkpt lat="44.66974" lon="1.43269">
        <ele>339.02</ele>
        <time>2017-07-02T13:29:25.000Z</time>
      </trkpt>
      <trkpt lat="44.66969" lon="1.43257">
        <ele>342.63</ele>
        <time>2017-07-02T13:29:36.000Z</time>
      </trkpt>
      <trkpt lat="44.6697" lon="1.4324">
        <ele>344.56</ele>
        <time>2017-07-02T13:29:45.000Z</time>
      </trkpt>
      <trkpt lat="44.66974" lon="1.43228">
        <ele>345.84</ele>
        <time>2017-07-02T13:30:00.000Z</time>
      </trkpt>
      <trkpt lat="44.6698" lon="1.43218">
        <ele>346.68</ele>
        <time>2017-07-02T13:30:15.000Z</time>
      </trkpt>
      <trkpt lat="44.66979" lon="1.43205">
        <ele>346.49</ele>
        <time>2017-07-02T13:30:26.000Z</time>
      </trkpt>
      <trkpt lat="44.66974" lon="1.43194">
        <ele>346.44</ele>
        <time>2017-07-02T13:30:39.000Z</time>
      </trkpt>
      <trkpt lat="44.66969" lon="1.43183">
        <ele>347.06</ele>
        <time>2017-07-02T13:30:46.000Z</time>
      </trkpt>
      <trkpt lat="44.66966" lon="1.4317">
        <ele>348.1</ele>
        <time>2017-07-02T13:31:01.000Z</time>
      </trkpt>
      <trkpt lat="44.66958" lon="1.43163">
        <ele>348.86</ele>
        <time>2017-07-02T13:31:08.000Z</time>
      </trkpt>
      <trkpt lat="44.66949" lon="1.43157">
        <ele>348.89</ele>
        <time>2017-07-02T13:31:19.000Z</time>
      </trkpt>
      <trkpt lat="44.66944" lon="1.43145">
        <ele>348.42</ele>
        <time>2017-07-02T13:31:39.000Z</time>
      </trkpt>
      <trkpt lat="44.66938" lon="1.43135">
        <ele>350.68</ele>
        <time>2017-07-02T13:31:53.000Z</time>
      </trkpt>
      <trkpt lat="44.66931" lon="1.43126">
        <ele>353.87</ele>
        <time>2017-07-02T13:32:07.000Z</time>
      </trkpt>
      <trkpt lat="44.66924" lon="1.43116">
        <ele>354.68</ele>
        <time>2017-07-02T13:32:20.000Z</time>
      </trkpt>
      <trkpt lat="44.66914" lon="1.43109">
        <ele>355.61</ele>
        <time>2017-07-02T13:32:33.000Z</time>
      </trkpt>
      <trkpt lat="44.66906" lon="1.43101">
        <ele>356.44</ele>
        <time>2017-07-02T13:32:39.000Z</time>
      </trkpt>
      <trkpt lat="44.66907" lon="1.43114">
        <ele>362.71</ele>
        <time>2017-07-02T13:37:59.000Z</time>
      </trkpt>
      <trkpt lat="44.66911" lon="1.43129">
        <ele>363.15</ele>
        <time>2017-07-02T13:38:07.000Z</time>
      </trkpt>
      <trkpt lat="44.6691" lon="1.43142">
        <ele>363.22</ele>
        <time>2017-07-02T13:38:20.000Z</time>
      </trkpt>
      <trkpt lat="44.66914" lon="1.43154">
        <ele>363.46</ele>
        <time>2017-07-02T13:38:32.000Z</time>
      </trkpt>
      <trkpt lat="44.66916" lon="1.43168">
        <ele>364.05</ele>
        <time>2017-07-02T13:38:42.000Z</time>
      </trkpt>
      <trkpt lat="44.6692" lon="1.4318">
        <ele>365.21</ele>
        <time>2017-07-02T13:38:51.000Z</time>
      </trkpt>
      <trkpt lat="44.66919" lon="1.43194">
        <ele>367.25</ele>
        <time>2017-07-02T13:39:07.000Z</time>
      </trkpt>
      <trkpt lat="44.66922" lon="1.43207">
        <ele>368.98</ele>
        <time>2017-07-02T13:39:15.000Z</time>
      </trkpt>
      <trkpt lat="44.66924" lon="1.4322">
        <ele>370.87</ele>
        <time>2017-07-02T13:39:26.000Z</time>
      </trkpt>
      <trkpt lat="44.6692" lon="1.43232">
        <ele>372.4</ele>
        <time>2017-07-02T13:39:49.000Z</time>
      </trkpt>
      <trkpt lat="44.66914" lon="1.43242">
        <ele>372.76</ele>
        <time>2017-07-02T13:39:53.000Z</time>
      </trkpt>
      <trkpt lat="44.66907" lon="1.43251">
        <ele>373.42</ele>
        <time>2017-07-02T13:40:05.000Z</time>
      </trkpt>
      <trkpt lat="44.669" lon="1.43259">
        <ele>374.09</ele>
        <time>2017-07-02T13:40:11.000Z</time>
      </trkpt>
      <trkpt lat="44.6689" lon="1.43263">
        <ele>374.75</ele>
        <time>2017-07-02T13:40:19.000Z</time>
      </trkpt>
      <trkpt lat="44.66884" lon="1.43253">
        <ele>376.71</ele>
        <time>2017-07-02T13:40:52.000Z</time>
      </trkpt>
      <trkpt lat="44.66883" lon="1.43239">
        <ele>377.55</ele>
        <time>2017-07-02T13:40:58.000Z</time>
      </trkpt>
      <trkpt lat="44.66877" lon="1.43228">
        <ele>378.2</ele>
        <time>2017-07-02T13:41:05.000Z</time>
      </trkpt>
      <trkpt lat="44.66871" lon="1.43219">
        <ele>379.18</ele>
        <time>2017-07-02T13:41:14.000Z</time>
      </trkpt>
      <trkpt lat="44.66867" lon="1.43207">
        <ele>378.98</ele>
        <time>2017-07-02T13:41:27.000Z</time>
      </trkpt>
      <trkpt lat="44.66859" lon="1.43194">
        <ele>379.25</ele>
        <time>2017-07-02T13:41:36.000Z</time>
      </trkpt>
      <trkpt lat="44.66853" lon="1.43184">
        <ele>376.32</ele>
        <time>2017-07-02T13:42:05.000Z</time>
      </trkpt>
      <trkpt lat="44.66845" lon="1.43175">
        <ele>376.43</ele>
        <time>2017-07-02T13:42:19.000Z</time>
      </trkpt>
      <trkpt lat="44.66837" lon="1.43166">
        <ele>377.01</ele>
        <time>2017-07-02T13:42:22.000Z</time>
      </trkpt>
      <trkpt lat="44.66828" lon="1.4316">
        <ele>377.77</ele>
        <time>2017-07-02T13:42:29.000Z</time>
      </trkpt>
      <trkpt lat="44.66819" lon="1.43155">
        <ele>380.36</ele>
        <time>2017-07-02T13:42:41.000Z</time>
      </trkpt>
      <trkpt lat="44.66813" lon="1.43145">
        <ele>382.04</ele>
        <time>2017-07-02T13:42:54.998Z</time>
      </trkpt>
      <trkpt lat="44.66808" lon="1.43134">
        <ele>382.35</ele>
        <time>2017-07-02T13:43:05.000Z</time>
      </trkpt>
      <trkpt lat="44.66803" lon="1.43122">
        <ele>382.52</ele>
        <time>2017-07-02T13:43:13.000Z</time>
      </trkpt>
      <trkpt lat="44.66795" lon="1.43114">
        <ele>381.75</ele>
        <time>2017-07-02T13:43:21.000Z</time>
      </trkpt>
      <trkpt lat="44.66792" lon="1.43129">
        <ele>384.69</ele>
        <time>2017-07-02T13:44:02.998Z</time>
      </trkpt>
      <trkpt lat="44.6679" lon="1.43142">
        <ele>386.14</ele>
        <time>2017-07-02T13:44:10.998Z</time>
      </trkpt>
      <trkpt lat="44.66789" lon="1.43155">
        <ele>387.64</ele>
        <time>2017-07-02T13:44:22.998Z</time>
      </trkpt>
      <trkpt lat="44.66785" lon="1.43168">
        <ele>388.58</ele>
        <time>2017-07-02T13:44:38.000Z</time>
      </trkpt>
      <trkpt lat="44.66782" lon="1.4318">
        <ele>389.3</ele>
        <time>2017-07-02T13:44:43.998Z</time>
      </trkpt>
      <trkpt lat="44.66779" lon="1.43194">
        <ele>390.67</ele>
        <time>2017-07-02T13:44:57.000Z</time>
      </trkpt>
      <trkpt lat="44.66777" lon="1.43206">
        <ele>391.09</ele>
        <time>2017-07-02T13:45:10.000Z</time>
      </trkpt>
      <trkpt lat="44.66777" lon="1.4322">
        <ele>391.52</ele>
        <time>2017-07-02T13:45:19.998Z</time>
      </trkpt>
      <trkpt lat="44.66778" lon="1.43234">
        <ele>392.06</ele>
        <time>2017-07-02T13:45:30.000Z</time>
      </trkpt>
      <trkpt lat="44.66778" lon="1.43247">
        <ele>392.92</ele>
        <time>2017-07-02T13:45:39.998Z</time>
      </trkpt>
      <trkpt lat="44.66773" lon="1.43257">
        <ele>394.59</ele>
        <time>2017-07-02T13:45:53.000Z</time>
      </trkpt>
      <trkpt lat="44.66767" lon="1.43267">
        <ele>394.31</ele>
        <time>2017-07-02T13:46:07.998Z</time>
      </trkpt>
      <trkpt lat="44.66764" lon="1.43279">
        <ele>396.32</ele>
        <time>2017-07-02T13:46:51.998Z</time>
      </trkpt>
      <trkpt lat="44.66761" lon="1.43292">
        <ele>396.26</ele>
        <time>2017-07-02T13:47:03.998Z</time>
      </trkpt>
      <trkpt lat="44.66756" lon="1.43303">
        <ele>396.32</ele>
        <time>2017-07-02T13:47:24.000Z</time>
      </trkpt>
      <trkpt lat="44.66754" lon="1.43316">
        <ele>396.66</ele>
        <time>2017-07-02T13:47:32.998Z</time>
      </trkpt>
      <trkpt lat="44.66753" lon="1.43328">
        <ele>396.98</ele>
        <time>2017-07-02T13:47:43.000Z</time>
      </trkpt>
      <trkpt lat="44.66752" lon="1.43341">
        <ele>397.01</ele>
        <time>2017-07-02T13:47:52.998Z</time>
      </trkpt>
      <trkpt lat="44.66753" lon="1.43354">
        <ele>397.62</ele>
        <time>2017-07-02T13:48:01.998Z</time>
      </trkpt>
      <trkpt lat="44.66753" lon="1.43368">
        <ele>398.41</ele>
        <time>2017-07-02T13:48:12.998Z</time>
      </trkpt>
      <trkpt lat="44.66756" lon="1.43382">
        <ele>398.93</ele>
        <time>2017-07-02T13:48:23.000Z</time>
      </trkpt>
      <trkpt lat="44.66755" lon="1.43395">
        <ele>399.18</ele>
        <time>2017-07-02T13:48:31.000Z</time>
      </trkpt>
      <trkpt lat="44.66754" lon="1.43408">
        <ele>399.82</ele>
        <time>2017-07-02T13:48:41.998Z</time>
      </trkpt>
      <trkpt lat="44.66758" lon="1.4342">
        <ele>400.22</ele>
        <time>2017-07-02T13:48:51.000Z</time>
      </trkpt>
      <trkpt lat="44.66755" lon="1.43433">
        <ele>400.07</ele>
        <time>2017-07-02T13:48:59.000Z</time>
      </trkpt>
      <trkpt lat="44.66751" lon="1.43445">
        <ele>399.77</ele>
        <time>2017-07-02T13:49:07.000Z</time>
      </trkpt>
      <trkpt lat="44.66749" lon="1.43458">
        <ele>399.77</ele>
        <time>2017-07-02T13:49:26.998Z</time>
      </trkpt>
      <trkpt lat="44.66747" lon="1.43471">
        <ele>399.97</ele>
        <time>2017-07-02T13:49:38.000Z</time>
      </trkpt>
      <trkpt lat="44.66742" lon="1.43481">
        <ele>400.19</ele>
        <time>2017-07-02T13:49:51.000Z</time>
      </trkpt>
      <trkpt lat="44.66737" lon="1.43494">
        <ele>399.22</ele>
        <time>2017-07-02T13:50:04.998Z</time>
      </trkpt>
      <trkpt lat="44.66732" lon="1.43508">
        <ele>398.59</ele>
        <time>2017-07-02T13:50:17.998Z</time>
      </trkpt>
      <trkpt lat="44.6673" lon="1.43521">
        <ele>397.67</ele>
        <time>2017-07-02T13:50:28.000Z</time>
      </trkpt>
      <trkpt lat="44.66723" lon="1.43531">
        <ele>397.04</ele>
        <time>2017-07-02T13:50:37.998Z</time>
      </trkpt>
      <trkpt lat="44.66716" lon="1.4354">
        <ele>396.3</ele>
        <time>2017-07-02T13:50:49.998Z</time>
      </trkpt>
      <trkpt lat="44.66708" lon="1.43548">
        <ele>393.65</ele>
        <time>2017-07-02T13:51:03.000Z</time>
      </trkpt>
      <trkpt lat="44.66703" lon="1.43558">
        <ele>390.25</ele>
        <time>2017-07-02T13:51:16.998Z</time>
      </trkpt>
      <trkpt lat="44.66698" lon="1.43569">
        <ele>387.26</ele>
        <time>2017-07-02T13:51:28.000Z</time>
      </trkpt>
      <trkpt lat="44.66689" lon="1.43571">
        <ele>384.89</ele>
        <time>2017-07-02T13:51:39.000Z</time>
      </trkpt>
      <trkpt lat="44.66678" lon="1.43569">
        <ele>383.58</ele>
        <time>2017-07-02T13:51:52.998Z</time>
      </trkpt>
      <trkpt lat="44.66669" lon="1.43573">
        <ele>383.18</ele>
        <time>2017-07-02T13:52:04.000Z</time>
      </trkpt>
      <trkpt lat="44.66658" lon="1.43572">
        <ele>383.49</ele>
        <time>2017-07-02T13:52:12.998Z</time>
      </trkpt>
      <trkpt lat="44.66647" lon="1.43571">
        <ele>383.23</ele>
        <time>2017-07-02T13:52:20.998Z</time>
      </trkpt>
      <trkpt lat="44.66637" lon="1.43569">
        <ele>383.56</ele>
        <time>2017-07-02T13:52:33.998Z</time>
      </trkpt>
      <trkpt lat="44.66628" lon="1.43569">
        <ele>382.89</ele>
        <time>2017-07-02T13:52:43.000Z</time>
      </trkpt>
      <trkpt lat="44.66619" lon="1.43568">
        <ele>380.23</ele>
        <time>2017-07-02T13:53:48.000Z</time>
      </trkpt>
      <trkpt lat="44.6661" lon="1.43562">
        <ele>378.5</ele>
        <time>2017-07-02T13:54:52.000Z</time>
      </trkpt>
      <trkpt lat="44.66602" lon="1.43555">
        <ele>378.22</ele>
        <time>2017-07-02T13:55:00.998Z</time>
      </trkpt>
      <trkpt lat="44.66594" lon="1.43548">
        <ele>378.09</ele>
        <time>2017-07-02T13:55:12.000Z</time>
      </trkpt>
      <trkpt lat="44.66586" lon="1.43541">
        <ele>377.96</ele>
        <time>2017-07-02T13:55:23.000Z</time>
      </trkpt>
      <trkpt lat="44.66578" lon="1.43533">
        <ele>379</ele>
        <time>2017-07-02T13:55:40.000Z</time>
      </trkpt>
      <trkpt lat="44.66571" lon="1.43524">
        <ele>378.9</ele>
        <time>2017-07-02T13:56:01.998Z</time>
      </trkpt>
      <trkpt lat="44.66563" lon="1.43516">
        <ele>379.57</ele>
        <time>2017-07-02T13:56:13.998Z</time>
      </trkpt>
      <trkpt lat="44.66555" lon="1.43511">
        <ele>380.57</ele>
        <time>2017-07-02T13:56:23.000Z</time>
      </trkpt>
      <trkpt lat="44.66546" lon="1.43507">
        <ele>382.41</ele>
        <time>2017-07-02T13:56:32.998Z</time>
      </trkpt>
      <trkpt lat="44.66537" lon="1.43512">
        <ele>384.51</ele>
        <time>2017-07-02T13:56:44.000Z</time>
      </trkpt>
      <trkpt lat="44.66528" lon="1.43515">
        <ele>386.21</ele>
        <time>2017-07-02T13:57:00.000Z</time>
      </trkpt>
      <trkpt lat="44.66519" lon="1.4351">
        <ele>386.18</ele>
        <time>2017-07-02T13:57:11.000Z</time>
      </trkpt>
      <trkpt lat="44.6651" lon="1.43508">
        <ele>386.07</ele>
        <time>2017-07-02T13:57:20.998Z</time>
      </trkpt>
      <trkpt lat="44.66501" lon="1.43504">
        <ele>385.88</ele>
        <time>2017-07-02T13:57:29.998Z</time>
      </trkpt>
      <trkpt lat="44.66492" lon="1.43506">
        <ele>385.45</ele>
        <time>2017-07-02T13:57:41.998Z</time>
      </trkpt>
      <trkpt lat="44.66483" lon="1.43508">
        <ele>385.1</ele>
        <time>2017-07-02T13:57:51.000Z</time>
      </trkpt>
      <trkpt lat="44.66474" lon="1.43504">
        <ele>385.22</ele>
        <time>2017-07-02T13:58:11.000Z</time>
      </trkpt>
      <trkpt lat="44.66466" lon="1.43497">
        <ele>384.15</ele>
        <time>2017-07-02T14:00:02.998Z</time>
      </trkpt>
      <trkpt lat="44.66467" lon="1.4351">
        <ele>380.94</ele>
        <time>2017-07-02T14:03:43.000Z</time>
      </trkpt>
      <trkpt lat="44.66471" lon="1.43523">
        <ele>382.17</ele>
        <time>2017-07-02T14:03:59.000Z</time>
      </trkpt>
      <trkpt lat="44.66472" lon="1.43537">
        <ele>383.39</ele>
        <time>2017-07-02T14:04:13.998Z</time>
      </trkpt>
      <trkpt lat="44.66472" lon="1.4355">
        <ele>383.15</ele>
        <time>2017-07-02T14:04:28.000Z</time>
      </trkpt>
      <trkpt lat="44.66462" lon="1.43549">
        <ele>383.75</ele>
        <time>2017-07-02T14:04:36.998Z</time>
      </trkpt>
      <trkpt lat="44.66451" lon="1.4355">
        <ele>384.11</ele>
        <time>2017-07-02T14:04:45.998Z</time>
      </trkpt>
      <trkpt lat="44.66442" lon="1.43551">
        <ele>384.05</ele>
        <time>2017-07-02T14:04:53.998Z</time>
      </trkpt>
      <trkpt lat="44.66433" lon="1.43544">
        <ele>383.25</ele>
        <time>2017-07-02T14:05:15.998Z</time>
      </trkpt>
      <trkpt lat="44.66424" lon="1.43538">
        <ele>382.84</ele>
        <time>2017-07-02T14:05:25.000Z</time>
      </trkpt>
      <trkpt lat="44.66415" lon="1.43534">
        <ele>382.94</ele>
        <time>2017-07-02T14:05:34.000Z</time>
      </trkpt>
      <trkpt lat="44.66407" lon="1.4353">
        <ele>383.49</ele>
        <time>2017-07-02T14:05:43.998Z</time>
      </trkpt>
      <trkpt lat="44.66399" lon="1.43522">
        <ele>383.93</ele>
        <time>2017-07-02T14:05:53.000Z</time>
      </trkpt>
      <trkpt lat="44.6639" lon="1.43516">
        <ele>384.02</ele>
        <time>2017-07-02T14:05:59.998Z</time>
      </trkpt>
      <trkpt lat="44.66381" lon="1.43512">
        <ele>383.6</ele>
        <time>2017-07-02T14:06:10.998Z</time>
      </trkpt>
      <trkpt lat="44.66372" lon="1.43509">
        <ele>384.35</ele>
        <time>2017-07-02T14:06:21.000Z</time>
      </trkpt>
      <trkpt lat="44.66363" lon="1.43505">
        <ele>384.39</ele>
        <time>2017-07-02T14:06:27.998Z</time>
      </trkpt>
      <trkpt lat="44.66354" lon="1.435">
        <ele>385.13</ele>
        <time>2017-07-02T14:06:38.000Z</time>
      </trkpt>
      <trkpt lat="44.66346" lon="1.43493">
        <ele>385.77</ele>
        <time>2017-07-02T14:06:46.000Z</time>
      </trkpt>
      <trkpt lat="44.66336" lon="1.43488">
        <ele>386.17</ele>
        <time>2017-07-02T14:06:57.000Z</time>
      </trkpt>
      <trkpt lat="44.66328" lon="1.43481">
        <ele>386.63</ele>
        <time>2017-07-02T14:07:05.000Z</time>
      </trkpt>
      <trkpt lat="44.66319" lon="1.43476">
        <ele>386.67</ele>
        <time>2017-07-02T14:07:14.998Z</time>
      </trkpt>
      <trkpt lat="44.66309" lon="1.43474">
        <ele>387.46</ele>
        <time>2017-07-02T14:07:23.998Z</time>
      </trkpt>
      <trkpt lat="44.663" lon="1.4347">
        <ele>388.38</ele>
        <time>2017-07-02T14:07:31.998Z</time>
      </trkpt>
      <trkpt lat="44.66291" lon="1.4347">
        <ele>389.45</ele>
        <time>2017-07-02T14:07:41.000Z</time>
      </trkpt>
      <trkpt lat="44.66282" lon="1.43469">
        <ele>390.27</ele>
        <time>2017-07-02T14:07:50.998Z</time>
      </trkpt>
      <trkpt lat="44.66272" lon="1.4347">
        <ele>391.4</ele>
        <time>2017-07-02T14:08:02.000Z</time>
      </trkpt>
      <trkpt lat="44.66262" lon="1.4347">
        <ele>392.16</ele>
        <time>2017-07-02T14:08:11.998Z</time>
      </trkpt>
      <trkpt lat="44.66253" lon="1.4347">
        <ele>395.85</ele>
        <time>2017-07-02T14:08:52.998Z</time>
      </trkpt>
      <trkpt lat="44.66243" lon="1.43469">
        <ele>396.5</ele>
        <time>2017-07-02T14:09:00.998Z</time>
      </trkpt>
      <trkpt lat="44.66234" lon="1.43465">
        <ele>396.79</ele>
        <time>2017-07-02T14:09:09.998Z</time>
      </trkpt>
      <trkpt lat="44.66225" lon="1.43459">
        <ele>397.17</ele>
        <time>2017-07-02T14:09:17.998Z</time>
      </trkpt>
      <trkpt lat="44.66216" lon="1.43458">
        <ele>397.61</ele>
        <time>2017-07-02T14:09:28.000Z</time>
      </trkpt>
      <trkpt lat="44.66205" lon="1.43461">
        <ele>398.09</ele>
        <time>2017-07-02T14:09:59.000Z</time>
      </trkpt>
      <trkpt lat="44.66196" lon="1.43461">
        <ele>398.16</ele>
        <time>2017-07-02T14:10:09.000Z</time>
      </trkpt>
      <trkpt lat="44.66187" lon="1.4346">
        <ele>398.2</ele>
        <time>2017-07-02T14:10:19.000Z</time>
      </trkpt>
      <trkpt lat="44.66177" lon="1.43459">
        <ele>398.17</ele>
        <time>2017-07-02T14:10:29.000Z</time>
      </trkpt>
      <trkpt lat="44.66168" lon="1.43461">
        <ele>398.62</ele>
        <time>2017-07-02T14:10:37.000Z</time>
      </trkpt>
      <trkpt lat="44.66158" lon="1.43464">
        <ele>399.65</ele>
        <time>2017-07-02T14:10:48.000Z</time>
      </trkpt>
      <trkpt lat="44.66149" lon="1.43466">
        <ele>399.72</ele>
        <time>2017-07-02T14:10:56.000Z</time>
      </trkpt>
      <trkpt lat="44.66139" lon="1.43468">
        <ele>399.46</ele>
        <time>2017-07-02T14:11:07.000Z</time>
      </trkpt>
      <trkpt lat="44.6613" lon="1.43473">
        <ele>399.23</ele>
        <time>2017-07-02T14:11:15.000Z</time>
      </trkpt>
      <trkpt lat="44.66122" lon="1.43481">
        <ele>399.97</ele>
        <time>2017-07-02T14:11:26.000Z</time>
      </trkpt>
      <trkpt lat="44.66113" lon="1.43484">
        <ele>400.95</ele>
        <time>2017-07-02T14:11:41.000Z</time>
      </trkpt>
      <trkpt lat="44.66105" lon="1.43491">
        <ele>401.84</ele>
        <time>2017-07-02T14:11:55.000Z</time>
      </trkpt>
      <trkpt lat="44.66096" lon="1.43495">
        <ele>402.09</ele>
        <time>2017-07-02T14:12:04.000Z</time>
      </trkpt>
      <trkpt lat="44.66087" lon="1.43498">
        <ele>402.28</ele>
        <time>2017-07-02T14:12:14.000Z</time>
      </trkpt>
      <trkpt lat="44.66078" lon="1.43502">
        <ele>402.44</ele>
        <time>2017-07-02T14:12:29.000Z</time>
      </trkpt>
      <trkpt lat="44.66068" lon="1.43505">
        <ele>401.89</ele>
        <time>2017-07-02T14:12:38.000Z</time>
      </trkpt>
      <trkpt lat="44.6606" lon="1.43508">
        <ele>400.02</ele>
        <time>2017-07-02T14:12:53.000Z</time>
      </trkpt>
      <trkpt lat="44.6605" lon="1.4351">
        <ele>399.08</ele>
        <time>2017-07-02T14:13:01.000Z</time>
      </trkpt>
      <trkpt lat="44.6604" lon="1.4351">
        <ele>398.32</ele>
        <time>2017-07-02T14:13:11.000Z</time>
      </trkpt>
      <trkpt lat="44.66031" lon="1.43515">
        <ele>398.86</ele>
        <time>2017-07-02T14:13:20.000Z</time>
      </trkpt>
      <trkpt lat="44.66022" lon="1.43518">
        <ele>399.45</ele>
        <time>2017-07-02T14:13:28.000Z</time>
      </trkpt>
      <trkpt lat="44.66012" lon="1.4352">
        <ele>399.56</ele>
        <time>2017-07-02T14:13:40.000Z</time>
      </trkpt>
      <trkpt lat="44.66003" lon="1.43525">
        <ele>399.3</ele>
        <time>2017-07-02T14:13:51.000Z</time>
      </trkpt>
      <trkpt lat="44.65995" lon="1.43531">
        <ele>398.82</ele>
        <time>2017-07-02T14:14:05.000Z</time>
      </trkpt>
      <trkpt lat="44.65986" lon="1.43534">
        <ele>396.99</ele>
        <time>2017-07-02T14:14:16.000Z</time>
      </trkpt>
      <trkpt lat="44.65976" lon="1.43537">
        <ele>395.61</ele>
        <time>2017-07-02T14:14:28.000Z</time>
      </trkpt>
      <trkpt lat="44.65968" lon="1.43545">
        <ele>394.8</ele>
        <time>2017-07-02T14:14:36.000Z</time>
      </trkpt>
      <trkpt lat="44.65962" lon="1.43554">
        <ele>394.37</ele>
        <time>2017-07-02T14:14:43.000Z</time>
      </trkpt>
      <trkpt lat="44.65953" lon="1.4356">
        <ele>393.6</ele>
        <time>2017-07-02T14:14:51.000Z</time>
      </trkpt>
      <trkpt lat="44.65945" lon="1.43565">
        <ele>392.46</ele>
        <time>2017-07-02T14:15:01.000Z</time>
      </trkpt>
      <trkpt lat="44.65936" lon="1.4357">
        <ele>391.66</ele>
        <time>2017-07-02T14:15:10.000Z</time>
      </trkpt>
      <trkpt lat="44.65928" lon="1.43575">
        <ele>390.88</ele>
        <time>2017-07-02T14:15:18.000Z</time>
      </trkpt>
      <trkpt lat="44.65918" lon="1.43581">
        <ele>389.76</ele>
        <time>2017-07-02T14:15:32.000Z</time>
      </trkpt>
      <trkpt lat="44.6591" lon="1.43586">
        <ele>387.09</ele>
        <time>2017-07-02T14:16:03.000Z</time>
      </trkpt>
      <trkpt lat="44.65901" lon="1.43585">
        <ele>386.08</ele>
        <time>2017-07-02T14:16:15.000Z</time>
      </trkpt>
      <trkpt lat="44.65891" lon="1.43583">
        <ele>385.05</ele>
        <time>2017-07-02T14:16:25.000Z</time>
      </trkpt>
      <trkpt lat="44.65883" lon="1.43588">
        <ele>383.61</ele>
        <time>2017-07-02T14:16:37.000Z</time>
      </trkpt>
      <trkpt lat="44.65874" lon="1.4359">
        <ele>382.3</ele>
        <time>2017-07-02T14:16:48.000Z</time>
      </trkpt>
      <trkpt lat="44.65866" lon="1.43597">
        <ele>381.06</ele>
        <time>2017-07-02T14:16:57.000Z</time>
      </trkpt>
      <trkpt lat="44.65856" lon="1.43601">
        <ele>380.87</ele>
        <time>2017-07-02T14:17:07.000Z</time>
      </trkpt>
      <trkpt lat="44.65847" lon="1.43604">
        <ele>380.79</ele>
        <time>2017-07-02T14:17:16.000Z</time>
      </trkpt>
      <trkpt lat="44.65838" lon="1.43608">
        <ele>380.58</ele>
        <time>2017-07-02T14:17:28.000Z</time>
      </trkpt>
      <trkpt lat="44.65828" lon="1.43609">
        <ele>380.36</ele>
        <time>2017-07-02T14:17:38.000Z</time>
      </trkpt>
      <trkpt lat="44.65819" lon="1.43617">
        <ele>379.25</ele>
        <time>2017-07-02T14:17:50.000Z</time>
      </trkpt>
      <trkpt lat="44.65812" lon="1.43625">
        <ele>379</ele>
        <time>2017-07-02T14:17:57.000Z</time>
      </trkpt>
      <trkpt lat="44.65806" lon="1.43636">
        <ele>378.86</ele>
        <time>2017-07-02T14:18:07.000Z</time>
      </trkpt>
      <trkpt lat="44.65802" lon="1.43648">
        <ele>378.96</ele>
        <time>2017-07-02T14:18:13.000Z</time>
      </trkpt>
      <trkpt lat="44.65797" lon="1.4366">
        <ele>379.04</ele>
        <time>2017-07-02T14:18:24.000Z</time>
      </trkpt>
      <trkpt lat="44.65795" lon="1.43673">
        <ele>379.11</ele>
        <time>2017-07-02T14:18:33.000Z</time>
      </trkpt>
      <trkpt lat="44.65792" lon="1.43686">
        <ele>380.02</ele>
        <time>2017-07-02T14:19:01.000Z</time>
      </trkpt>
      <trkpt lat="44.65791" lon="1.437">
        <ele>380.64</ele>
        <time>2017-07-02T14:19:10.000Z</time>
      </trkpt>
      <trkpt lat="44.65791" lon="1.43713">
        <ele>380.27</ele>
        <time>2017-07-02T14:19:20.000Z</time>
      </trkpt>
      <trkpt lat="44.65786" lon="1.43724">
        <ele>380.17</ele>
        <time>2017-07-02T14:19:31.000Z</time>
      </trkpt>
      <trkpt lat="44.65785" lon="1.43738">
        <ele>380.14</ele>
        <time>2017-07-02T14:19:42.000Z</time>
      </trkpt>
      <trkpt lat="44.65781" lon="1.43751">
        <ele>379.82</ele>
        <time>2017-07-02T14:19:49.000Z</time>
      </trkpt>
      <trkpt lat="44.65779" lon="1.43764">
        <ele>379.28</ele>
        <time>2017-07-02T14:20:01.000Z</time>
      </trkpt>
      <trkpt lat="44.65777" lon="1.43778">
        <ele>379.1</ele>
        <time>2017-07-02T14:20:10.000Z</time>
      </trkpt>
      <trkpt lat="44.65773" lon="1.4379">
        <ele>379.01</ele>
        <time>2017-07-02T14:20:25.000Z</time>
      </trkpt>
      <trkpt lat="44.65769" lon="1.43802">
        <ele>379.43</ele>
        <time>2017-07-02T14:20:36.000Z</time>
      </trkpt>
      <trkpt lat="44.65764" lon="1.43814">
        <ele>379.75</ele>
        <time>2017-07-02T14:20:46.000Z</time>
      </trkpt>
      <trkpt lat="44.6576" lon="1.43825">
        <ele>379.83</ele>
        <time>2017-07-02T14:20:56.000Z</time>
      </trkpt>
      <trkpt lat="44.65766" lon="1.43835">
        <ele>379.84</ele>
        <time>2017-07-02T14:21:10.000Z</time>
      </trkpt>
      <trkpt lat="44.65775" lon="1.43841">
        <ele>379.01</ele>
        <time>2017-07-02T14:21:22.000Z</time>
      </trkpt>
      <trkpt lat="44.65784" lon="1.43845">
        <ele>376</ele>
        <time>2017-07-02T14:22:08.000Z</time>
      </trkpt>
      <trkpt lat="44.65793" lon="1.43848">
        <ele>375.84</ele>
        <time>2017-07-02T14:22:38.000Z</time>
      </trkpt>
      <trkpt lat="44.65802" lon="1.43848">
        <ele>374.48</ele>
        <time>2017-07-02T14:22:53.000Z</time>
      </trkpt>
      <trkpt lat="44.65809" lon="1.43838">
        <ele>371.24</ele>
        <time>2017-07-02T14:23:32.000Z</time>
      </trkpt>
      <trkpt lat="44.65813" lon="1.43826">
        <ele>369.85</ele>
        <time>2017-07-02T14:23:45.000Z</time>
      </trkpt>
      <trkpt lat="44.65818" lon="1.43837">
        <ele>367.22</ele>
        <time>2017-07-02T14:24:09.000Z</time>
      </trkpt>
      <trkpt lat="44.65818" lon="1.4385">
        <ele>365.24</ele>
        <time>2017-07-02T14:24:17.000Z</time>
      </trkpt>
      <trkpt lat="44.65822" lon="1.43864">
        <ele>362.43</ele>
        <time>2017-07-02T14:24:28.000Z</time>
      </trkpt>
      <trkpt lat="44.65825" lon="1.43877">
        <ele>359.79</ele>
        <time>2017-07-02T14:24:42.000Z</time>
      </trkpt>
      <trkpt lat="44.6583" lon="1.43891">
        <ele>358.98</ele>
        <time>2017-07-02T14:24:49.000Z</time>
      </trkpt>
      <trkpt lat="44.65833" lon="1.43904">
        <ele>359.64</ele>
        <time>2017-07-02T14:25:01.000Z</time>
      </trkpt>
      <trkpt lat="44.65836" lon="1.43916">
        <ele>360.05</ele>
        <time>2017-07-02T14:25:11.000Z</time>
      </trkpt>
      <trkpt lat="44.65841" lon="1.43928">
        <ele>360.31</ele>
        <time>2017-07-02T14:25:22.000Z</time>
      </trkpt>
      <trkpt lat="44.6585" lon="1.43934">
        <ele>359.69</ele>
        <time>2017-07-02T14:25:38.000Z</time>
      </trkpt>
      <trkpt lat="44.65859" lon="1.43938">
        <ele>358.47</ele>
        <time>2017-07-02T14:25:51.000Z</time>
      </trkpt>
      <trkpt lat="44.65868" lon="1.4394">
        <ele>357.4</ele>
        <time>2017-07-02T14:26:05.000Z</time>
      </trkpt>
      <trkpt lat="44.65877" lon="1.43945">
        <ele>357.68</ele>
        <time>2017-07-02T14:26:16.000Z</time>
      </trkpt>
      <trkpt lat="44.65883" lon="1.43956">
        <ele>356.43</ele>
        <time>2017-07-02T14:26:26.000Z</time>
      </trkpt>
      <trkpt lat="44.65885" lon="1.43968">
        <ele>355</ele>
        <time>2017-07-02T14:26:38.000Z</time>
      </trkpt>
      <trkpt lat="44.65886" lon="1.43982">
        <ele>353.94</ele>
        <time>2017-07-02T14:26:49.000Z</time>
      </trkpt>
      <trkpt lat="44.65881" lon="1.43993">
        <ele>352.85</ele>
        <time>2017-07-02T14:27:00.000Z</time>
      </trkpt>
      <trkpt lat="44.65874" lon="1.44003">
        <ele>351.13</ele>
        <time>2017-07-02T14:27:21.000Z</time>
      </trkpt>
      <trkpt lat="44.65876" lon="1.44017">
        <ele>350.46</ele>
        <time>2017-07-02T14:28:13.000Z</time>
      </trkpt>
      <trkpt lat="44.65886" lon="1.4403">
        <ele>351.46</ele>
        <time>2017-07-02T14:28:31.000Z</time>
      </trkpt>
      <trkpt lat="44.65894" lon="1.44037">
        <ele>351.76</ele>
        <time>2017-07-02T14:28:37.000Z</time>
      </trkpt>
      <trkpt lat="44.65893" lon="1.4405">
        <ele>349.63</ele>
        <time>2017-07-02T14:28:58.000Z</time>
      </trkpt>
      <trkpt lat="44.65897" lon="1.44062">
        <ele>347.96</ele>
        <time>2017-07-02T14:29:12.000Z</time>
      </trkpt>
      <trkpt lat="44.65897" lon="1.44076">
        <ele>345.56</ele>
        <time>2017-07-02T14:29:25.000Z</time>
      </trkpt>
      <trkpt lat="44.65898" lon="1.4409">
        <ele>342.58</ele>
        <time>2017-07-02T14:29:35.000Z</time>
      </trkpt>
      <trkpt lat="44.65898" lon="1.44102">
        <ele>341.38</ele>
        <time>2017-07-02T14:29:42.000Z</time>
      </trkpt>
      <trkpt lat="44.65897" lon="1.44115">
        <ele>340.61</ele>
        <time>2017-07-02T14:29:49.000Z</time>
      </trkpt>
      <trkpt lat="44.65896" lon="1.44129">
        <ele>340.2</ele>
        <time>2017-07-02T14:29:57.000Z</time>
      </trkpt>
      <trkpt lat="44.65895" lon="1.44141">
        <ele>338.55</ele>
        <time>2017-07-02T14:30:09.000Z</time>
      </trkpt>
      <trkpt lat="44.65895" lon="1.44154">
        <ele>338.25</ele>
        <time>2017-07-02T14:30:16.000Z</time>
      </trkpt>
      <trkpt lat="44.65893" lon="1.44167">
        <ele>338.07</ele>
        <time>2017-07-02T14:30:25.000Z</time>
      </trkpt>
      <trkpt lat="44.65888" lon="1.44178">
        <ele>337.9</ele>
        <time>2017-07-02T14:30:34.000Z</time>
      </trkpt>
      <trkpt lat="44.65885" lon="1.4419">
        <ele>338.09</ele>
        <time>2017-07-02T14:30:43.000Z</time>
      </trkpt>
      <trkpt lat="44.65881" lon="1.44202">
        <ele>338.24</ele>
        <time>2017-07-02T14:30:53.000Z</time>
      </trkpt>
      <trkpt lat="44.65872" lon="1.44199">
        <ele>337.7</ele>
        <time>2017-07-02T14:32:05.000Z</time>
      </trkpt>
      <trkpt lat="44.65878" lon="1.44211">
        <ele>338.64</ele>
        <time>2017-07-02T14:32:20.000Z</time>
      </trkpt>
      <trkpt lat="44.65883" lon="1.44222">
        <ele>339.19</ele>
        <time>2017-07-02T14:32:29.000Z</time>
      </trkpt>
      <trkpt lat="44.65884" lon="1.44235">
        <ele>339.24</ele>
        <time>2017-07-02T14:32:50.000Z</time>
      </trkpt>
      <trkpt lat="44.65885" lon="1.44248">
        <ele>339.49</ele>
        <time>2017-07-02T14:33:00.000Z</time>
      </trkpt>
      <trkpt lat="44.65887" lon="1.44262">
        <ele>339.66</ele>
        <time>2017-07-02T14:33:11.000Z</time>
      </trkpt>
      <trkpt lat="44.65891" lon="1.44274">
        <ele>339.14</ele>
        <time>2017-07-02T14:33:21.000Z</time>
      </trkpt>
      <trkpt lat="44.65897" lon="1.44286">
        <ele>338.01</ele>
        <time>2017-07-02T14:33:31.000Z</time>
      </trkpt>
      <trkpt lat="44.659" lon="1.44298">
        <ele>337.2</ele>
        <time>2017-07-02T14:33:42.000Z</time>
      </trkpt>
      <trkpt lat="44.65904" lon="1.44311">
        <ele>336.6</ele>
        <time>2017-07-02T14:33:54.000Z</time>
      </trkpt>
      <trkpt lat="44.6591" lon="1.44323">
        <ele>335.08</ele>
        <time>2017-07-02T14:34:06.000Z</time>
      </trkpt>
      <trkpt lat="44.65916" lon="1.44333">
        <ele>334.27</ele>
        <time>2017-07-02T14:34:17.000Z</time>
      </trkpt>
      <trkpt lat="44.65923" lon="1.44341">
        <ele>333.96</ele>
        <time>2017-07-02T14:34:23.000Z</time>
      </trkpt>
      <trkpt lat="44.65928" lon="1.44355">
        <ele>333.21</ele>
        <time>2017-07-02T14:34:32.000Z</time>
      </trkpt>
      <trkpt lat="44.65934" lon="1.44366">
        <ele>332.83</ele>
        <time>2017-07-02T14:34:42.000Z</time>
      </trkpt>
      <trkpt lat="44.6594" lon="1.44377">
        <ele>332.23</ele>
        <time>2017-07-02T14:34:52.000Z</time>
      </trkpt>
      <trkpt lat="44.65945" lon="1.44389">
        <ele>331.19</ele>
        <time>2017-07-02T14:35:02.000Z</time>
      </trkpt>
      <trkpt lat="44.65948" lon="1.44402">
        <ele>330.47</ele>
        <time>2017-07-02T14:35:10.000Z</time>
      </trkpt>
      <trkpt lat="44.65952" lon="1.44415">
        <ele>329.42</ele>
        <time>2017-07-02T14:35:19.000Z</time>
      </trkpt>
      <trkpt lat="44.65951" lon="1.44428">
        <ele>328.82</ele>
        <time>2017-07-02T14:35:30.000Z</time>
      </trkpt>
      <trkpt lat="44.65954" lon="1.4444">
        <ele>327.44</ele>
        <time>2017-07-02T14:35:41.000Z</time>
      </trkpt>
      <trkpt lat="44.65957" lon="1.44454">
        <ele>326.89</ele>
        <time>2017-07-02T14:35:50.000Z</time>
      </trkpt>
      <trkpt lat="44.65957" lon="1.44467">
        <ele>326.23</ele>
        <time>2017-07-02T14:36:02.000Z</time>
      </trkpt>
      <trkpt lat="44.65958" lon="1.44481">
        <ele>325.78</ele>
        <time>2017-07-02T14:36:13.000Z</time>
      </trkpt>
      <trkpt lat="44.65963" lon="1.44493">
        <ele>324.32</ele>
        <time>2017-07-02T14:36:23.000Z</time>
      </trkpt>
      <trkpt lat="44.65973" lon="1.44498">
        <ele>322.4</ele>
        <time>2017-07-02T14:36:35.000Z</time>
      </trkpt>
      <trkpt lat="44.65982" lon="1.44499">
        <ele>321.15</ele>
        <time>2017-07-02T14:36:44.000Z</time>
      </trkpt>
      <trkpt lat="44.6599" lon="1.44505">
        <ele>319.56</ele>
        <time>2017-07-02T14:36:56.000Z</time>
      </trkpt>
      <trkpt lat="44.65991" lon="1.44518">
        <ele>317.56</ele>
        <time>2017-07-02T14:37:21.000Z</time>
      </trkpt>
      <trkpt lat="44.65995" lon="1.44531">
        <ele>316.48</ele>
        <time>2017-07-02T14:37:28.000Z</time>
      </trkpt>
      <trkpt lat="44.65997" lon="1.44544">
        <ele>315.27</ele>
        <time>2017-07-02T14:37:37.000Z</time>
      </trkpt>
      <trkpt lat="44.66" lon="1.44556">
        <ele>313.92</ele>
        <time>2017-07-02T14:37:50.000Z</time>
      </trkpt>
      <trkpt lat="44.66002" lon="1.44569">
        <ele>312.59</ele>
        <time>2017-07-02T14:38:01.998Z</time>
      </trkpt>
      <trkpt lat="44.66002" lon="1.44582">
        <ele>310.73</ele>
        <time>2017-07-02T14:38:13.998Z</time>
      </trkpt>
      <trkpt lat="44.66002" lon="1.44595">
        <ele>309.67</ele>
        <time>2017-07-02T14:38:27.000Z</time>
      </trkpt>
      <trkpt lat="44.65998" lon="1.44607">
        <ele>308.64</ele>
        <time>2017-07-02T14:38:36.000Z</time>
      </trkpt>
      <trkpt lat="44.65992" lon="1.44616">
        <ele>306.2</ele>
        <time>2017-07-02T14:38:48.000Z</time>
      </trkpt>
      <trkpt lat="44.65983" lon="1.4462">
        <ele>304.72</ele>
        <time>2017-07-02T14:38:56.998Z</time>
      </trkpt>
      <trkpt lat="44.65974" lon="1.44624">
        <ele>302.24</ele>
        <time>2017-07-02T14:39:09.998Z</time>
      </trkpt>
      <trkpt lat="44.65966" lon="1.4463">
        <ele>300.09</ele>
        <time>2017-07-02T14:39:20.000Z</time>
      </trkpt>
      <trkpt lat="44.65958" lon="1.44638">
        <ele>298.47</ele>
        <time>2017-07-02T14:39:29.998Z</time>
      </trkpt>
      <trkpt lat="44.6595" lon="1.44645">
        <ele>296.4</ele>
        <time>2017-07-02T14:39:48.000Z</time>
      </trkpt>
      <trkpt lat="44.65944" lon="1.44654">
        <ele>295.52</ele>
        <time>2017-07-02T14:39:59.000Z</time>
      </trkpt>
      <trkpt lat="44.65936" lon="1.44663">
        <ele>294.74</ele>
        <time>2017-07-02T14:40:08.000Z</time>
      </trkpt>
      <trkpt lat="44.65928" lon="1.44671">
        <ele>293.01</ele>
        <time>2017-07-02T14:40:20.998Z</time>
      </trkpt>
      <trkpt lat="44.65931" lon="1.44683">
        <ele>289.68</ele>
        <time>2017-07-02T14:40:36.000Z</time>
      </trkpt>
      <trkpt lat="44.65938" lon="1.44694">
        <ele>288.52</ele>
        <time>2017-07-02T14:40:48.000Z</time>
      </trkpt>
      <trkpt lat="44.65942" lon="1.44706">
        <ele>288.67</ele>
        <time>2017-07-02T14:40:59.000Z</time>
      </trkpt>
      <trkpt lat="44.65939" lon="1.44718">
        <ele>285.98</ele>
        <time>2017-07-02T14:41:27.000Z</time>
      </trkpt>
      <trkpt lat="44.65933" lon="1.44729">
        <ele>283.92</ele>
        <time>2017-07-02T14:41:52.000Z</time>
      </trkpt>
      <trkpt lat="44.65931" lon="1.44742">
        <ele>281.14</ele>
        <time>2017-07-02T14:42:15.000Z</time>
      </trkpt>
      <trkpt lat="44.65928" lon="1.44755">
        <ele>281.11</ele>
        <time>2017-07-02T14:42:32.998Z</time>
      </trkpt>
      <trkpt lat="44.65923" lon="1.44765">
        <ele>281.82</ele>
        <time>2017-07-02T14:43:13.998Z</time>
      </trkpt>
      <trkpt lat="44.65913" lon="1.44768">
        <ele>279.46</ele>
        <time>2017-07-02T14:43:32.998Z</time>
      </trkpt>
      <trkpt lat="44.65905" lon="1.44772">
        <ele>279.22</ele>
        <time>2017-07-02T14:44:05.998Z</time>
      </trkpt>
      <trkpt lat="44.65894" lon="1.44768">
        <ele>276.95</ele>
        <time>2017-07-02T14:44:19.000Z</time>
      </trkpt>
      <trkpt lat="44.65886" lon="1.44764">
        <ele>274.56</ele>
        <time>2017-07-02T14:44:29.998Z</time>
      </trkpt>
      <trkpt lat="44.65876" lon="1.44765">
        <ele>272.85</ele>
        <time>2017-07-02T14:44:49.998Z</time>
      </trkpt>
      <trkpt lat="44.65869" lon="1.44776">
        <ele>272.23</ele>
        <time>2017-07-02T14:45:00.998Z</time>
      </trkpt>
      <trkpt lat="44.65863" lon="1.44786">
        <ele>271.99</ele>
        <time>2017-07-02T14:45:11.000Z</time>
      </trkpt>
      <trkpt lat="44.65856" lon="1.44796">
        <ele>271.26</ele>
        <time>2017-07-02T14:45:23.000Z</time>
      </trkpt>
      <trkpt lat="44.6585" lon="1.44808">
        <ele>269.89</ele>
        <time>2017-07-02T14:45:33.998Z</time>
      </trkpt>
      <trkpt lat="44.65844" lon="1.44818">
        <ele>268.49</ele>
        <time>2017-07-02T14:45:41.998Z</time>
      </trkpt>
      <trkpt lat="44.65839" lon="1.44831">
        <ele>267.56</ele>
        <time>2017-07-02T14:45:52.998Z</time>
      </trkpt>
      <trkpt lat="44.65832" lon="1.44841">
        <ele>267.29</ele>
        <time>2017-07-02T14:46:03.000Z</time>
      </trkpt>
      <trkpt lat="44.65825" lon="1.44849">
        <ele>266.79</ele>
        <time>2017-07-02T14:46:12.000Z</time>
      </trkpt>
      <trkpt lat="44.65815" lon="1.4485">
        <ele>265.38</ele>
        <time>2017-07-02T14:46:20.000Z</time>
      </trkpt>
      <trkpt lat="44.65806" lon="1.44848">
        <ele>263.61</ele>
        <time>2017-07-02T14:46:32.998Z</time>
      </trkpt>
      <trkpt lat="44.65797" lon="1.44845">
        <ele>262.81</ele>
        <time>2017-07-02T14:46:43.000Z</time>
      </trkpt>
      <trkpt lat="44.65788" lon="1.44841">
        <ele>261.65</ele>
        <time>2017-07-02T14:46:52.000Z</time>
      </trkpt>
      <trkpt lat="44.65779" lon="1.44836">
        <ele>260.02</ele>
        <time>2017-07-02T14:47:01.998Z</time>
      </trkpt>
      <trkpt lat="44.6577" lon="1.44832">
        <ele>259.06</ele>
        <time>2017-07-02T14:47:08.998Z</time>
      </trkpt>
      <trkpt lat="44.6576" lon="1.44831">
        <ele>257.93</ele>
        <time>2017-07-02T14:47:17.998Z</time>
      </trkpt>
      <trkpt lat="44.65752" lon="1.44825">
        <ele>256.02</ele>
        <time>2017-07-02T14:47:32.000Z</time>
      </trkpt>
      <trkpt lat="44.65743" lon="1.44822">
        <ele>255.7</ele>
        <time>2017-07-02T14:47:40.000Z</time>
      </trkpt>
      <trkpt lat="44.65734" lon="1.44817">
        <ele>255.86</ele>
        <time>2017-07-02T14:47:48.000Z</time>
      </trkpt>
      <trkpt lat="44.65725" lon="1.44813">
        <ele>257.09</ele>
        <time>2017-07-02T14:47:56.998Z</time>
      </trkpt>
      <trkpt lat="44.65716" lon="1.44806">
        <ele>257.86</ele>
        <time>2017-07-02T14:48:07.000Z</time>
      </trkpt>
      <trkpt lat="44.6571" lon="1.44796">
        <ele>257.04</ele>
        <time>2017-07-02T14:48:21.998Z</time>
      </trkpt>
      <trkpt lat="44.65701" lon="1.4479">
        <ele>256.6</ele>
        <time>2017-07-02T14:48:36.000Z</time>
      </trkpt>
      <trkpt lat="44.65694" lon="1.4478">
        <ele>256.16</ele>
        <time>2017-07-02T14:48:44.000Z</time>
      </trkpt>
      <trkpt lat="44.65687" lon="1.44771">
        <ele>255.7</ele>
        <time>2017-07-02T14:48:53.998Z</time>
      </trkpt>
      <trkpt lat="44.65679" lon="1.44762">
        <ele>254.69</ele>
        <time>2017-07-02T14:49:04.000Z</time>
      </trkpt>
      <trkpt lat="44.65673" lon="1.44752">
        <ele>254.01</ele>
        <time>2017-07-02T14:49:11.000Z</time>
      </trkpt>
      <trkpt lat="44.65666" lon="1.44742">
        <ele>254.04</ele>
        <time>2017-07-02T14:49:20.000Z</time>
      </trkpt>
      <trkpt lat="44.6566" lon="1.44732">
        <ele>253.68</ele>
        <time>2017-07-02T14:49:28.998Z</time>
      </trkpt>
      <trkpt lat="44.65654" lon="1.44722">
        <ele>253.34</ele>
        <time>2017-07-02T14:49:37.998Z</time>
      </trkpt>
      <trkpt lat="44.65647" lon="1.44713">
        <ele>253.73</ele>
        <time>2017-07-02T14:49:45.998Z</time>
      </trkpt>
      <trkpt lat="44.65641" lon="1.44702">
        <ele>253.54</ele>
        <time>2017-07-02T14:49:57.998Z</time>
      </trkpt>
      <trkpt lat="44.65636" lon="1.44691">
        <ele>253.26</ele>
        <time>2017-07-02T14:50:04.000Z</time>
      </trkpt>
      <trkpt lat="44.6563" lon="1.44681">
        <ele>252.64</ele>
        <time>2017-07-02T14:50:12.998Z</time>
      </trkpt>
      <trkpt lat="44.65623" lon="1.44672">
        <ele>252.56</ele>
        <time>2017-07-02T14:50:23.000Z</time>
      </trkpt>
      <trkpt lat="44.65615" lon="1.44663">
        <ele>252.65</ele>
        <time>2017-07-02T14:50:29.998Z</time>
      </trkpt>
      <trkpt lat="44.65608" lon="1.44656">
        <ele>252.19</ele>
        <time>2017-07-02T14:50:37.998Z</time>
      </trkpt>
      <trkpt lat="44.65599" lon="1.44649">
        <ele>253.5</ele>
        <time>2017-07-02T14:50:52.998Z</time>
      </trkpt>
      <trkpt lat="44.65592" lon="1.44639">
        <ele>254.16</ele>
        <time>2017-07-02T14:51:00.000Z</time>
      </trkpt>
      <trkpt lat="44.65584" lon="1.4463">
        <ele>255.29</ele>
        <time>2017-07-02T14:51:08.998Z</time>
      </trkpt>
      <trkpt lat="44.65576" lon="1.44623">
        <ele>255.79</ele>
        <time>2017-07-02T14:51:17.998Z</time>
      </trkpt>
      <trkpt lat="44.65567" lon="1.44616">
        <ele>256.47</ele>
        <time>2017-07-02T14:51:28.000Z</time>
      </trkpt>
      <trkpt lat="44.6556" lon="1.44608">
        <ele>257.05</ele>
        <time>2017-07-02T14:51:37.998Z</time>
      </trkpt>
      <trkpt lat="44.65553" lon="1.44601">
        <ele>256.95</ele>
        <time>2017-07-02T14:51:45.998Z</time>
      </trkpt>
      <trkpt lat="44.65544" lon="1.44598">
        <ele>257.43</ele>
        <time>2017-07-02T14:51:55.000Z</time>
      </trkpt>
      <trkpt lat="44.65538" lon="1.44588">
        <ele>257.8</ele>
        <time>2017-07-02T14:52:01.998Z</time>
      </trkpt>
      <trkpt lat="44.65529" lon="1.44583">
        <ele>258.46</ele>
        <time>2017-07-02T14:52:11.000Z</time>
      </trkpt>
      <trkpt lat="44.65521" lon="1.44575">
        <ele>258.58</ele>
        <time>2017-07-02T14:52:20.000Z</time>
      </trkpt>
      <trkpt lat="44.65511" lon="1.44568">
        <ele>258.6</ele>
        <time>2017-07-02T14:52:28.000Z</time>
      </trkpt>
      <trkpt lat="44.65505" lon="1.44559">
        <ele>258.57</ele>
        <time>2017-07-02T14:52:39.000Z</time>
      </trkpt>
      <trkpt lat="44.65498" lon="1.44549">
        <ele>258.55</ele>
        <time>2017-07-02T14:52:47.000Z</time>
      </trkpt>
      <trkpt lat="44.65492" lon="1.44538">
        <ele>258.59</ele>
        <time>2017-07-02T14:52:56.998Z</time>
      </trkpt>
      <trkpt lat="44.65485" lon="1.44528">
        <ele>258.49</ele>
        <time>2017-07-02T14:53:08.998Z</time>
      </trkpt>
      <trkpt lat="44.65481" lon="1.44516">
        <ele>258.81</ele>
        <time>2017-07-02T14:53:16.998Z</time>
      </trkpt>
      <trkpt lat="44.65474" lon="1.44504">
        <ele>259.44</ele>
        <time>2017-07-02T14:53:28.000Z</time>
      </trkpt>
      <trkpt lat="44.65469" lon="1.44494">
        <ele>259.49</ele>
        <time>2017-07-02T14:53:35.000Z</time>
      </trkpt>
      <trkpt lat="44.65461" lon="1.44487">
        <ele>259.68</ele>
        <time>2017-07-02T14:53:44.000Z</time>
      </trkpt>
      <trkpt lat="44.65455" lon="1.44477">
        <ele>259.38</ele>
        <time>2017-07-02T14:53:55.000Z</time>
      </trkpt>
      <trkpt lat="44.65451" lon="1.44465">
        <ele>258.16</ele>
        <time>2017-07-02T14:54:05.998Z</time>
      </trkpt>
      <trkpt lat="44.65447" lon="1.44454">
        <ele>256.46</ele>
        <time>2017-07-02T14:54:16.000Z</time>
      </trkpt>
      <trkpt lat="44.65445" lon="1.4444">
        <ele>255.4</ele>
        <time>2017-07-02T14:54:23.000Z</time>
      </trkpt>
      <trkpt lat="44.65438" lon="1.44432">
        <ele>254.71</ele>
        <time>2017-07-02T14:54:28.998Z</time>
      </trkpt>
      <trkpt lat="44.65431" lon="1.44424">
        <ele>254.36</ele>
        <time>2017-07-02T14:54:37.998Z</time>
      </trkpt>
      <trkpt lat="44.65422" lon="1.44416">
        <ele>254.44</ele>
        <time>2017-07-02T14:54:49.998Z</time>
      </trkpt>
      <trkpt lat="44.65415" lon="1.44408">
        <ele>254.1</ele>
        <time>2017-07-02T14:54:57.998Z</time>
      </trkpt>
      <trkpt lat="44.65406" lon="1.44404">
        <ele>253.93</ele>
        <time>2017-07-02T14:55:08.998Z</time>
      </trkpt>
      <trkpt lat="44.65397" lon="1.44398">
        <ele>253.56</ele>
        <time>2017-07-02T14:55:16.998Z</time>
      </trkpt>
      <trkpt lat="44.65391" lon="1.44388">
        <ele>253.71</ele>
        <time>2017-07-02T14:55:25.998Z</time>
      </trkpt>
      <trkpt lat="44.65383" lon="1.4438">
        <ele>254.61</ele>
        <time>2017-07-02T14:55:36.998Z</time>
      </trkpt>
      <trkpt lat="44.65376" lon="1.4437">
        <ele>254.75</ele>
        <time>2017-07-02T14:55:45.998Z</time>
      </trkpt>
      <trkpt lat="44.65371" lon="1.44357">
        <ele>255.13</ele>
        <time>2017-07-02T14:55:57.998Z</time>
      </trkpt>
      <trkpt lat="44.65365" lon="1.44347">
        <ele>255.27</ele>
        <time>2017-07-02T14:56:07.000Z</time>
      </trkpt>
      <trkpt lat="44.65358" lon="1.44339">
        <ele>255.32</ele>
        <time>2017-07-02T14:56:16.000Z</time>
      </trkpt>
      <trkpt lat="44.65351" lon="1.4433">
        <ele>255.15</ele>
        <time>2017-07-02T14:56:24.000Z</time>
      </trkpt>
      <trkpt lat="44.65344" lon="1.44321">
        <ele>255.29</ele>
        <time>2017-07-02T14:56:33.998Z</time>
      </trkpt>
      <trkpt lat="44.65339" lon="1.4431">
        <ele>255.4</ele>
        <time>2017-07-02T14:56:40.998Z</time>
      </trkpt>
      <trkpt lat="44.65332" lon="1.44301">
        <ele>255.52</ele>
        <time>2017-07-02T14:56:51.000Z</time>
      </trkpt>
      <trkpt lat="44.65325" lon="1.4429">
        <ele>255.79</ele>
        <time>2017-07-02T14:57:00.998Z</time>
      </trkpt>
      <trkpt lat="44.65319" lon="1.44279">
        <ele>256.01</ele>
        <time>2017-07-02T14:57:11.000Z</time>
      </trkpt>
      <trkpt lat="44.65314" lon="1.44268">
        <ele>255.6</ele>
        <time>2017-07-02T14:57:19.000Z</time>
      </trkpt>
      <trkpt lat="44.65309" lon="1.44257">
        <ele>255.19</ele>
        <time>2017-07-02T14:57:28.000Z</time>
      </trkpt>
      <trkpt lat="44.65304" lon="1.44246">
        <ele>255.35</ele>
        <time>2017-07-02T14:57:39.000Z</time>
      </trkpt>
      <trkpt lat="44.65297" lon="1.44234">
        <ele>255.65</ele>
        <time>2017-07-02T14:57:49.998Z</time>
      </trkpt>
      <trkpt lat="44.65292" lon="1.44224">
        <ele>256.3</ele>
        <time>2017-07-02T14:57:57.998Z</time>
      </trkpt>
      <trkpt lat="44.65286" lon="1.44213">
        <ele>257.14</ele>
        <time>2017-07-02T14:58:11.000Z</time>
      </trkpt>
      <trkpt lat="44.65279" lon="1.44204">
        <ele>256.93</ele>
        <time>2017-07-02T14:58:19.000Z</time>
      </trkpt>
      <trkpt lat="44.65273" lon="1.44194">
        <ele>256.71</ele>
        <time>2017-07-02T14:58:28.998Z</time>
      </trkpt>
      <trkpt lat="44.65266" lon="1.44184">
        <ele>256.21</ele>
        <time>2017-07-02T14:58:39.000Z</time>
      </trkpt>
      <trkpt lat="44.6526" lon="1.44174">
        <ele>256.05</ele>
        <time>2017-07-02T14:58:44.998Z</time>
      </trkpt>
      <trkpt lat="44.65255" lon="1.44163">
        <ele>255.26</ele>
        <time>2017-07-02T14:58:59.000Z</time>
      </trkpt>
      <trkpt lat="44.65252" lon="1.44151">
        <ele>255.43</ele>
        <time>2017-07-02T14:59:04.998Z</time>
      </trkpt>
      <trkpt lat="44.65247" lon="1.44141">
        <ele>255.06</ele>
        <time>2017-07-02T14:59:16.000Z</time>
      </trkpt>
      <trkpt lat="44.65242" lon="1.44129">
        <ele>254.38</ele>
        <time>2017-07-02T14:59:20.998Z</time>
      </trkpt>
      <trkpt lat="44.65238" lon="1.44118">
        <ele>254.34</ele>
        <time>2017-07-02T14:59:32.000Z</time>
      </trkpt>
      <trkpt lat="44.65234" lon="1.44105">
        <ele>254.12</ele>
        <time>2017-07-02T14:59:39.000Z</time>
      </trkpt>
      <trkpt lat="44.6523" lon="1.44094">
        <ele>254.57</ele>
        <time>2017-07-02T14:59:49.998Z</time>
      </trkpt>
      <trkpt lat="44.65226" lon="1.44082">
        <ele>255.6</ele>
        <time>2017-07-02T14:59:59.000Z</time>
      </trkpt>
      <trkpt lat="44.65222" lon="1.4407">
        <ele>256.02</ele>
        <time>2017-07-02T15:00:05.998Z</time>
      </trkpt>
      <trkpt lat="44.6522" lon="1.44057">
        <ele>256.43</ele>
        <time>2017-07-02T15:00:13.998Z</time>
      </trkpt>
      <trkpt lat="44.65214" lon="1.44046">
        <ele>257.46</ele>
        <time>2017-07-02T15:00:24.998Z</time>
      </trkpt>
      <trkpt lat="44.6521" lon="1.44034">
        <ele>257.63</ele>
        <time>2017-07-02T15:00:36.000Z</time>
      </trkpt>
      <trkpt lat="44.65206" lon="1.4402">
        <ele>257.41</ele>
        <time>2017-07-02T15:00:44.998Z</time>
      </trkpt>
      <trkpt lat="44.65203" lon="1.44007">
        <ele>256.93</ele>
        <time>2017-07-02T15:00:55.000Z</time>
      </trkpt>
      <trkpt lat="44.65199" lon="1.43994">
        <ele>255.76</ele>
        <time>2017-07-02T15:01:03.000Z</time>
      </trkpt>
      <trkpt lat="44.65193" lon="1.43983">
        <ele>254.14</ele>
        <time>2017-07-02T15:01:13.998Z</time>
      </trkpt>
      <trkpt lat="44.65186" lon="1.43973">
        <ele>253.66</ele>
        <time>2017-07-02T15:01:21.998Z</time>
      </trkpt>
      <trkpt lat="44.65178" lon="1.43967">
        <ele>253.1</ele>
        <time>2017-07-02T15:01:32.000Z</time>
      </trkpt>
      <trkpt lat="44.65168" lon="1.43966">
        <ele>253.12</ele>
        <time>2017-07-02T15:01:41.998Z</time>
      </trkpt>
      <trkpt lat="44.65159" lon="1.43963">
        <ele>253.8</ele>
        <time>2017-07-02T15:01:51.000Z</time>
      </trkpt>
      <trkpt lat="44.6515" lon="1.4396">
        <ele>254.38</ele>
        <time>2017-07-02T15:02:00.000Z</time>
      </trkpt>
      <trkpt lat="44.65141" lon="1.4396">
        <ele>255.23</ele>
        <time>2017-07-02T15:02:08.000Z</time>
      </trkpt>
      <trkpt lat="44.65132" lon="1.43952">
        <ele>255.51</ele>
        <time>2017-07-02T15:02:16.000Z</time>
      </trkpt>
      <trkpt lat="44.65129" lon="1.43939">
        <ele>255.68</ele>
        <time>2017-07-02T15:02:25.998Z</time>
      </trkpt>
      <trkpt lat="44.65128" lon="1.43926">
        <ele>255.36</ele>
        <time>2017-07-02T15:02:32.000Z</time>
      </trkpt>
      <trkpt lat="44.65131" lon="1.43914">
        <ele>254.48</ele>
        <time>2017-07-02T15:02:39.000Z</time>
      </trkpt>
      <trkpt lat="44.65132" lon="1.43901">
        <ele>253.65</ele>
        <time>2017-07-02T15:02:44.998Z</time>
      </trkpt>
      <trkpt lat="44.65131" lon="1.43888">
        <ele>252.48</ele>
        <time>2017-07-02T15:02:56.000Z</time>
      </trkpt>
      <trkpt lat="44.65128" lon="1.43876">
        <ele>252.42</ele>
        <time>2017-07-02T15:03:04.000Z</time>
      </trkpt>
      <trkpt lat="44.65121" lon="1.43867">
        <ele>252.06</ele>
        <time>2017-07-02T15:03:13.998Z</time>
      </trkpt>
      <trkpt lat="44.65112" lon="1.43862">
        <ele>252.73</ele>
        <time>2017-07-02T15:03:23.000Z</time>
      </trkpt>
      <trkpt lat="44.65102" lon="1.43859">
        <ele>253.61</ele>
        <time>2017-07-02T15:03:31.000Z</time>
      </trkpt>
      <trkpt lat="44.65093" lon="1.43861">
        <ele>254</ele>
        <time>2017-07-02T15:03:37.998Z</time>
      </trkpt>
      <trkpt lat="44.65083" lon="1.43863">
        <ele>254.37</ele>
        <time>2017-07-02T15:03:48.000Z</time>
      </trkpt>
      <trkpt lat="44.65073" lon="1.43863">
        <ele>254.41</ele>
        <time>2017-07-02T15:03:56.000Z</time>
      </trkpt>
      <trkpt lat="44.65065" lon="1.43858">
        <ele>254.76</ele>
        <time>2017-07-02T15:04:03.000Z</time>
      </trkpt>
      <trkpt lat="44.65057" lon="1.43849">
        <ele>254.99</ele>
        <time>2017-07-02T15:04:12.998Z</time>
      </trkpt>
      <trkpt lat="44.6505" lon="1.4384">
        <ele>255.35</ele>
        <time>2017-07-02T15:04:20.998Z</time>
      </trkpt>
      <trkpt lat="44.65044" lon="1.4383">
        <ele>255.11</ele>
        <time>2017-07-02T15:04:31.000Z</time>
      </trkpt>
      <trkpt lat="44.65039" lon="1.43819">
        <ele>254.88</ele>
        <time>2017-07-02T15:04:37.998Z</time>
      </trkpt>
      <trkpt lat="44.65038" lon="1.43806">
        <ele>254.85</ele>
        <time>2017-07-02T15:04:47.000Z</time>
      </trkpt>
      <trkpt lat="44.65034" lon="1.43794">
        <ele>254.25</ele>
        <time>2017-07-02T15:04:59.000Z</time>
      </trkpt>
      <trkpt lat="44.6503" lon="1.43782">
        <ele>253.89</ele>
        <time>2017-07-02T15:05:09.998Z</time>
      </trkpt>
      <trkpt lat="44.65025" lon="1.4377">
        <ele>254.2</ele>
        <time>2017-07-02T15:05:20.000Z</time>
      </trkpt>
      <trkpt lat="44.6502" lon="1.43758">
        <ele>254.02</ele>
        <time>2017-07-02T15:05:27.000Z</time>
      </trkpt>
      <trkpt lat="44.65015" lon="1.43747">
        <ele>253.61</ele>
        <time>2017-07-02T15:05:32.998Z</time>
      </trkpt>
      <trkpt lat="44.6501" lon="1.43736">
        <ele>252.96</ele>
        <time>2017-07-02T15:05:44.998Z</time>
      </trkpt>
      <trkpt lat="44.65006" lon="1.43725">
        <ele>252.7</ele>
        <time>2017-07-02T15:05:53.998Z</time>
      </trkpt>
      <trkpt lat="44.65001" lon="1.43713">
        <ele>252.78</ele>
        <time>2017-07-02T15:06:04.000Z</time>
      </trkpt>
      <trkpt lat="44.64999" lon="1.43699">
        <ele>252.21</ele>
        <time>2017-07-02T15:06:12.998Z</time>
      </trkpt>
      <trkpt lat="44.64998" lon="1.43686">
        <ele>252.49</ele>
        <time>2017-07-02T15:06:21.998Z</time>
      </trkpt>
      <trkpt lat="44.6499" lon="1.4368">
        <ele>251.96</ele>
        <time>2017-07-02T15:06:36.998Z</time>
      </trkpt>
      <trkpt lat="44.64994" lon="1.43668">
        <ele>248.11</ele>
        <time>2017-07-02T15:07:08.000Z</time>
      </trkpt>
      <trkpt lat="44.64988" lon="1.43656">
        <ele>248.38</ele>
        <time>2017-07-02T15:07:19.000Z</time>
      </trkpt>
      <trkpt lat="44.64988" lon="1.43643">
        <ele>248.13</ele>
        <time>2017-07-02T15:07:36.000Z</time>
      </trkpt>
      <trkpt lat="44.6499" lon="1.4363">
        <ele>245.4</ele>
        <time>2017-07-02T15:08:01.000Z</time>
      </trkpt>
      <trkpt lat="44.64986" lon="1.43617">
        <ele>246.08</ele>
        <time>2017-07-02T15:08:08.000Z</time>
      </trkpt>
      <trkpt lat="44.64986" lon="1.43604">
        <ele>247.31</ele>
        <time>2017-07-02T15:08:17.000Z</time>
      </trkpt>
      <trkpt lat="44.64982" lon="1.43592">
        <ele>247.97</ele>
        <time>2017-07-02T15:08:26.000Z</time>
      </trkpt>
      <trkpt lat="44.64977" lon="1.43579">
        <ele>247.76</ele>
        <time>2017-07-02T15:08:34.000Z</time>
      </trkpt>
      <trkpt lat="44.64973" lon="1.43566">
        <ele>248.4</ele>
        <time>2017-07-02T15:08:45.000Z</time>
      </trkpt>
      <trkpt lat="44.64971" lon="1.43553">
        <ele>248.81</ele>
        <time>2017-07-02T15:08:52.000Z</time>
      </trkpt>
      <trkpt lat="44.64974" lon="1.4354">
        <ele>248.21</ele>
        <time>2017-07-02T15:09:00.000Z</time>
      </trkpt>
    </trkseg>
  </trk>
</gpx>